Time,TemperatureF,DewpointF,PressureIn,WindDirection,WindDirectionDegrees,WindSpeedMPH,WindSpeedGustMPH,Humidity,HourlyPrecipIn,Conditions,Clouds,dailyrainin,SoftwareType,DateUTC
2013-03-27 00:00:00,32.1,26.3,30.13,West,276,0.0,0.0,79,0.00,,---,0.00,VWS V14.01,2013-03-27 05:00:00,
2013-03-27 00:05:00,31.9,26.4,30.13,West,276,0.0,0.0,80,0.00,,---,0.00,VWS V14.01,2013-03-27 05:05:00,
2013-03-27 00:07:00,31.9,26.4,30.13,West,276,0.0,0.0,80,0.00,,---,0.00,VWS V14.01,2013-03-27 05:07:00,
2013-03-27 00:08:00,31.9,26.4,30.13,West,276,0.0,0.0,80,0.00,,---,0.00,VWS V14.01,2013-03-27 05:08:00,
2013-03-27 00:10:00,31.9,26.4,30.13,West,276,0.0,0.0,80,0.00,,---,0.00,VWS V14.01,2013-03-27 05:10:00,
2013-03-27 00:13:00,31.9,26.4,30.13,West,276,0.0,0.0,80,0.00,,---,0.00,VWS V14.01,2013-03-27 05:13:00,
2013-03-27 00:15:00,31.9,26.7,30.13,West,276,0.0,0.0,81,0.00,,---,0.00,VWS V14.01,2013-03-27 05:15:00,
2013-03-27 00:19:00,32.1,26.9,30.13,West,276,0.0,0.0,81,0.00,,---,0.00,VWS V14.01,2013-03-27 05:19:00,
2013-03-27 00:23:00,32.4,27.2,30.13,West,276,0.0,0.0,81,0.00,,---,0.00,VWS V14.01,2013-03-27 05:23:00,
2013-03-27 00:24:00,32.4,27.2,30.13,West,276,0.0,0.0,81,0.00,,---,0.00,VWS V14.01,2013-03-27 05:24:00,
2013-03-27 00:26:00,32.5,27.3,30.13,West,276,0.0,0.0,81,0.00,,---,0.00,VWS V14.01,2013-03-27 05:26:00,
2013-03-27 00:28:00,32.7,27.5,30.13,West,276,0.0,0.0,81,0.00,,---,0.00,VWS V14.01,2013-03-27 05:28:00,
2013-03-27 00:29:00,32.7,27.5,30.13,West,276,0.0,0.0,81,0.00,,---,0.00,VWS V14.01,2013-03-27 05:29:00,
2013-03-27 00:30:00,32.7,27.5,30.13,West,276,0.0,0.0,81,0.00,,---,0.00,VWS V14.01,2013-03-27 05:30:00,
2013-03-27 00:31:00,32.8,27.6,30.13,West,276,0.0,0.0,81,0.00,,---,0.00,VWS V14.01,2013-03-27 05:31:00,
2013-03-27 00:34:00,32.9,27.7,30.13,West,276,0.0,0.0,81,0.00,,---,0.00,VWS V14.01,2013-03-27 05:34:00,
2013-03-27 00:35:00,32.9,27.7,30.13,West,276,0.0,0.0,81,0.00,,---,0.00,VWS V14.01,2013-03-27 05:35:00,
2013-03-27 00:37:00,33.1,27.6,30.13,West,276,0.0,0.0,80,0.00,,---,0.00,VWS V14.01,2013-03-27 05:37:00,
2013-03-27 00:38:00,33.1,27.6,30.13,West,276,0.0,0.0,80,0.00,,---,0.00,VWS V14.01,2013-03-27 05:38:00,
2013-03-27 00:40:00,33.1,27.6,30.13,West,276,0.0,0.0,80,0.00,,---,0.00,VWS V14.01,2013-03-27 05:40:00,
2013-03-27 00:42:00,33.2,27.7,30.13,West,276,0.0,0.0,80,0.00,,---,0.00,VWS V14.01,2013-03-27 05:42:00,
2013-03-27 00:44:00,33.2,27.7,30.13,West,276,0.0,0.0,80,0.00,,---,0.00,VWS V14.01,2013-03-27 05:44:00,
2013-03-27 00:45:00,33.2,27.7,30.13,West,276,0.0,0.0,80,0.00,,---,0.00,VWS V14.01,2013-03-27 05:45:00,
2013-03-27 00:47:00,33.4,27.9,30.13,West,276,0.0,0.0,80,0.00,,---,0.00,VWS V14.01,2013-03-27 05:47:00,
2013-03-27 00:49:00,33.4,27.6,30.13,West,276,0.0,0.0,79,0.00,,---,0.00,VWS V14.01,2013-03-27 05:49:00,
2013-03-27 00:50:00,33.4,27.6,30.13,West,276,0.0,0.0,79,0.00,,---,0.00,VWS V14.01,2013-03-27 05:50:00,
2013-03-27 00:52:00,33.4,27.6,30.13,West,276,0.0,0.0,79,0.00,,---,0.00,VWS V14.01,2013-03-27 05:52:00,
2013-03-27 00:54:00,33.4,27.6,30.13,West,276,0.0,0.0,79,0.00,,---,0.00,VWS V14.01,2013-03-27 05:54:00,
2013-03-27 00:55:00,33.4,27.6,30.13,West,276,0.0,0.0,79,0.00,,---,0.00,VWS V14.01,2013-03-27 05:55:00,
2013-03-27 00:57:00,33.4,27.6,30.13,West,276,0.0,0.0,79,0.00,,---,0.00,VWS V14.01,2013-03-27 05:57:00,
2013-03-27 00:58:00,33.4,27.6,30.13,West,276,0.0,0.0,79,0.00,,---,0.00,VWS V14.01,2013-03-27 05:58:00,
2013-03-27 00:59:00,33.4,27.6,30.13,West,276,0.0,0.0,79,0.00,,---,0.00,VWS V14.01,2013-03-27 05:59:00,
2013-03-27 01:01:00,33.4,27.6,30.13,West,276,0.0,0.0,79,0.00,,---,0.00,VWS V14.01,2013-03-27 06:01:00,
2013-03-27 01:02:00,33.2,27.4,30.13,West,276,0.0,0.0,79,0.00,,---,0.00,VWS V14.01,2013-03-27 06:02:00,
2013-03-27 01:03:00,33.2,27.4,30.13,West,276,0.0,0.0,79,0.00,,---,0.00,VWS V14.01,2013-03-27 06:03:00,
2013-03-27 01:05:00,33.2,27.4,30.13,West,276,0.0,0.0,79,0.00,,---,0.00,VWS V14.01,2013-03-27 06:05:00,
2013-03-27 01:06:00,33.2,27.1,30.13,West,276,0.0,0.0,78,0.00,,---,0.00,VWS V14.01,2013-03-27 06:06:00,
2013-03-27 01:08:00,33.1,27.0,30.13,West,276,0.0,0.0,78,0.00,,---,0.00,VWS V14.01,2013-03-27 06:08:00,
2013-03-27 01:10:00,32.9,27.1,30.13,West,276,0.0,0.0,79,0.00,,---,0.00,VWS V14.01,2013-03-27 06:10:00,
2013-03-27 01:12:00,32.9,27.1,30.13,West,276,0.0,0.0,79,0.00,,---,0.00,VWS V14.01,2013-03-27 06:12:00,
2013-03-27 01:13:00,32.9,27.1,30.13,West,276,0.0,0.0,79,0.00,,---,0.00,VWS V14.01,2013-03-27 06:13:00,
2013-03-27 01:15:00,32.8,27.0,30.13,West,276,0.0,0.0,79,0.00,,---,0.00,VWS V14.01,2013-03-27 06:15:00,
2013-03-27 01:17:00,32.8,27.0,30.13,West,276,0.0,0.0,79,0.00,,---,0.00,VWS V14.01,2013-03-27 06:17:00,
2013-03-27 01:18:00,32.8,27.0,30.13,West,276,0.0,0.0,79,0.00,,---,0.00,VWS V14.01,2013-03-27 06:18:00,
2013-03-27 01:20:00,32.7,26.9,30.13,West,276,0.0,0.0,79,0.00,,---,0.00,VWS V14.01,2013-03-27 06:20:00,
2013-03-27 01:22:00,32.5,26.7,30.13,West,276,0.0,0.0,79,0.00,,---,0.00,VWS V14.01,2013-03-27 06:22:00,
2013-03-27 01:23:00,32.5,26.7,30.13,West,276,0.0,0.0,79,0.00,,---,0.00,VWS V14.01,2013-03-27 06:23:00,
2013-03-27 01:25:00,32.4,26.6,30.13,West,276,0.0,0.0,79,0.00,,---,0.00,VWS V14.01,2013-03-27 06:25:00,
2013-03-27 01:27:00,32.4,26.6,30.13,West,276,1.0,1.0,79,0.00,,---,0.00,VWS V14.01,2013-03-27 06:27:00,
2013-03-27 01:28:00,32.4,26.6,30.13,West,276,0.0,0.0,79,0.00,,---,0.00,VWS V14.01,2013-03-27 06:28:00,
2013-03-27 01:30:00,32.2,26.4,30.13,West,276,0.0,0.0,79,0.00,,---,0.00,VWS V14.01,2013-03-27 06:30:00,
2013-03-27 01:33:00,32.2,26.7,30.13,West,276,0.0,0.0,80,0.00,,---,0.00,VWS V14.01,2013-03-27 06:33:00,
2013-03-27 01:34:00,32.2,26.4,30.13,West,276,0.0,0.0,79,0.00,,---,0.00,VWS V14.01,2013-03-27 06:34:00,
2013-03-27 01:35:00,32.2,26.4,30.13,West,276,0.0,0.0,79,0.00,,---,0.00,VWS V14.01,2013-03-27 06:35:00,
2013-03-27 01:38:00,32.2,26.7,30.13,West,276,0.0,0.0,80,0.00,,---,0.00,VWS V14.01,2013-03-27 06:38:00,
2013-03-27 01:40:00,32.1,26.3,30.13,WNW,288,2.0,2.0,79,0.00,,---,0.00,VWS V14.01,2013-03-27 06:40:00,
2013-03-27 01:42:00,32.1,26.3,30.13,WNW,297,0.0,2.0,79,0.00,,---,0.00,VWS V14.01,2013-03-27 06:42:00,
2013-03-27 01:44:00,32.1,26.3,30.13,WNW,297,0.0,0.0,79,0.00,,---,0.00,VWS V14.01,2013-03-27 06:44:00,
2013-03-27 01:47:00,32.1,26.3,30.13,WNW,297,0.0,1.0,79,0.00,,---,0.00,VWS V14.01,2013-03-27 06:47:00,
2013-03-27 01:49:00,32.1,26.3,30.13,WNW,297,0.0,0.0,79,0.00,,---,0.00,VWS V14.01,2013-03-27 06:49:00,
2013-03-27 01:53:00,32.1,26.3,30.13,WNW,297,0.0,0.0,79,0.00,,---,0.00,VWS V14.01,2013-03-27 06:53:00,
2013-03-27 01:54:00,32.1,26.3,30.13,WNW,297,0.0,0.0,79,0.00,,---,0.00,VWS V14.01,2013-03-27 06:54:00,
2013-03-27 01:55:00,32.1,26.3,30.13,WNW,297,0.0,0.0,79,0.00,,---,0.00,VWS V14.01,2013-03-27 06:55:00,
2013-03-27 01:58:00,31.9,26.1,30.13,WNW,297,0.0,0.0,79,0.00,,---,0.00,VWS V14.01,2013-03-27 06:58:00,
2013-03-27 01:59:00,31.9,26.1,30.13,WNW,297,0.0,0.0,79,0.00,,---,0.00,VWS V14.01,2013-03-27 06:59:00,
2013-03-27 02:00:00,31.9,26.1,30.13,WNW,297,0.0,0.0,79,0.00,,---,0.00,VWS V14.01,2013-03-27 07:00:00,
2013-03-27 02:04:00,31.9,26.1,30.13,WNW,297,0.0,0.0,79,0.00,,---,0.00,VWS V14.01,2013-03-27 07:04:00,
2013-03-27 02:06:00,31.9,26.1,30.13,WNW,297,0.0,1.0,79,0.00,,---,0.00,VWS V14.01,2013-03-27 07:06:00,
2013-03-27 02:07:00,31.9,26.1,30.13,WNW,297,0.0,0.0,79,0.00,,---,0.00,VWS V14.01,2013-03-27 07:07:00,
2013-03-27 02:10:00,31.9,26.1,30.13,WNW,297,0.0,0.0,79,0.00,,---,0.00,VWS V14.01,2013-03-27 07:10:00,
2013-03-27 02:11:00,31.9,26.1,30.13,WNW,297,0.0,0.0,79,0.00,,---,0.00,VWS V14.01,2013-03-27 07:11:00,
2013-03-27 02:12:00,31.9,26.1,30.13,WNW,297,0.0,0.0,79,0.00,,---,0.00,VWS V14.01,2013-03-27 07:12:00,
2013-03-27 02:13:00,31.9,26.1,30.13,WNW,297,0.0,0.0,79,0.00,,---,0.00,VWS V14.01,2013-03-27 07:13:00,
2013-03-27 02:15:00,31.9,26.1,30.13,WNW,297,0.0,0.0,79,0.00,,---,0.00,VWS V14.01,2013-03-27 07:15:00,
2013-03-27 02:17:00,31.9,26.1,30.13,WNW,297,0.0,0.0,79,0.00,,---,0.00,VWS V14.01,2013-03-27 07:17:00,
2013-03-27 02:18:00,31.9,26.1,30.13,WNW,297,1.0,1.0,79,0.00,,---,0.00,VWS V14.01,2013-03-27 07:18:00,
2013-03-27 02:19:00,31.9,26.1,30.13,WNW,297,0.0,0.0,79,0.00,,---,0.00,VWS V14.01,2013-03-27 07:19:00,
2013-03-27 02:20:00,31.9,26.1,30.13,WNW,297,0.0,0.0,79,0.00,,---,0.00,VWS V14.01,2013-03-27 07:20:00,
2013-03-27 02:22:00,31.9,26.1,30.13,WNW,297,0.0,1.0,79,0.00,,---,0.00,VWS V14.01,2013-03-27 07:22:00,
2013-03-27 02:23:00,31.9,26.1,30.13,WNW,297,0.0,1.0,79,0.00,,---,0.00,VWS V14.01,2013-03-27 07:23:00,
2013-03-27 02:25:00,31.8,26.0,30.13,WNW,297,2.0,2.0,79,0.00,,---,0.00,VWS V14.01,2013-03-27 07:25:00,
2013-03-27 02:28:00,31.8,26.0,30.13,NNW,338,0.0,1.0,79,0.00,,---,0.00,VWS V14.01,2013-03-27 07:28:00,
2013-03-27 02:29:00,31.8,26.0,30.13,NNW,338,0.0,2.0,79,0.00,,---,0.00,VWS V14.01,2013-03-27 07:29:00,
2013-03-27 02:31:00,31.8,26.0,30.13,NNW,338,0.0,1.0,79,0.00,,---,0.00,VWS V14.01,2013-03-27 07:31:00,
2013-03-27 02:32:00,31.8,26.0,30.13,NNW,338,0.0,0.0,79,0.00,,---,0.00,VWS V14.01,2013-03-27 07:32:00,
2013-03-27 02:35:00,31.8,26.0,30.13,NNW,338,1.0,1.0,79,0.00,,---,0.00,VWS V14.01,2013-03-27 07:35:00,
2013-03-27 02:36:00,31.8,26.0,30.13,NNW,338,0.0,1.0,79,0.00,,---,0.00,VWS V14.01,2013-03-27 07:36:00,
2013-03-27 02:37:00,31.8,26.0,30.13,NNW,338,0.0,0.0,79,0.00,,---,0.00,VWS V14.01,2013-03-27 07:37:00,
2013-03-27 02:42:00,31.6,25.9,30.13,NNW,338,0.0,2.0,79,0.00,,---,0.00,VWS V14.01,2013-03-27 07:42:00,
2013-03-27 02:43:00,31.6,25.9,30.13,West,265,1.0,1.0,79,0.00,,---,0.00,VWS V14.01,2013-03-27 07:43:00,
2013-03-27 02:47:00,31.5,25.8,30.13,NW,326,0.0,1.0,79,0.00,,---,0.00,VWS V14.01,2013-03-27 07:47:00,
2013-03-27 02:48:00,31.5,25.8,30.13,NW,326,0.0,1.0,79,0.00,,---,0.00,VWS V14.01,2013-03-27 07:48:00,
2013-03-27 02:52:00,31.5,25.8,30.13,NW,311,0.0,0.0,79,0.00,,---,0.00,VWS V14.01,2013-03-27 07:52:00,
2013-03-27 02:53:00,31.5,25.8,30.13,WNW,283,1.0,3.0,79,0.00,,---,0.00,VWS V14.01,2013-03-27 07:53:00,
2013-03-27 02:54:00,31.5,25.8,30.13,WNW,283,0.0,0.0,79,0.00,,---,0.00,VWS V14.01,2013-03-27 07:54:00,
2013-03-27 02:59:00,31.5,25.8,30.13,West,266,0.0,2.0,79,0.00,,---,0.00,VWS V14.01,2013-03-27 07:59:00,
2013-03-27 03:00:00,31.5,25.8,30.13,West,266,0.0,1.0,79,0.00,,---,0.00,VWS V14.01,2013-03-27 08:00:00,
2013-03-27 03:03:00,31.5,25.8,30.13,NW,323,2.0,2.0,79,0.00,,---,0.00,VWS V14.01,2013-03-27 08:03:00,
2013-03-27 03:06:00,31.5,25.8,30.13,NW,323,1.0,1.0,79,0.00,,---,0.00,VWS V14.01,2013-03-27 08:06:00,
2013-03-27 03:07:00,31.5,25.8,30.13,WSW,256,0.0,3.0,79,0.00,,---,0.00,VWS V14.01,2013-03-27 08:07:00,
2013-03-27 03:08:00,31.5,25.8,30.13,WSW,256,0.0,0.0,79,0.00,,---,0.00,VWS V14.01,2013-03-27 08:08:00,
2013-03-27 03:13:00,31.5,25.8,30.13,WSW,257,0.0,0.0,79,0.00,,---,0.00,VWS V14.01,2013-03-27 08:13:00,
2013-03-27 03:14:00,31.5,25.8,30.13,WSW,257,0.0,1.0,79,0.00,,---,0.00,VWS V14.01,2013-03-27 08:14:00,
2013-03-27 03:18:00,31.5,26.0,30.13,NW,314,0.0,0.0,80,0.00,,---,0.00,VWS V14.01,2013-03-27 08:18:00,
2013-03-27 03:19:00,31.5,26.0,30.13,NW,314,0.0,1.0,80,0.00,,---,0.00,VWS V14.01,2013-03-27 08:19:00,
2013-03-27 03:24:00,31.3,25.9,30.13,NW,314,0.0,1.0,80,0.00,,---,0.00,VWS V14.01,2013-03-27 08:24:00,
2013-03-27 03:25:00,31.3,25.9,30.13,NW,314,1.0,1.0,80,0.00,,---,0.00,VWS V14.01,2013-03-27 08:25:00,
2013-03-27 03:27:00,31.3,25.9,30.13,NW,314,0.0,0.0,80,0.00,,---,0.00,VWS V14.01,2013-03-27 08:27:00,
2013-03-27 03:29:00,31.3,25.9,30.13,NW,314,0.0,0.0,80,0.00,,---,0.00,VWS V14.01,2013-03-27 08:29:00,
2013-03-27 03:30:00,31.3,25.9,30.13,NW,314,0.0,0.0,80,0.00,,---,0.00,VWS V14.01,2013-03-27 08:30:00,
2013-03-27 03:33:00,31.2,25.8,30.13,NW,314,0.0,0.0,80,0.00,,---,0.00,VWS V14.01,2013-03-27 08:33:00,
2013-03-27 03:34:00,31.2,25.8,30.13,NW,314,0.0,1.0,80,0.00,,---,0.00,VWS V14.01,2013-03-27 08:34:00,
2013-03-27 03:36:00,31.2,25.8,30.13,NW,314,0.0,1.0,80,0.00,,---,0.00,VWS V14.01,2013-03-27 08:36:00,
2013-03-27 03:38:00,31.2,25.8,30.13,NW,313,2.0,3.0,80,0.00,,---,0.00,VWS V14.01,2013-03-27 08:38:00,
2013-03-27 03:39:00,31.2,25.8,30.13,NW,313,0.0,2.0,80,0.00,,---,0.00,VWS V14.01,2013-03-27 08:39:00,
2013-03-27 03:41:00,31.2,25.8,30.13,NW,313,1.0,2.0,80,0.00,,---,0.00,VWS V14.01,2013-03-27 08:41:00,
2013-03-27 03:42:00,31.2,25.8,30.13,NW,313,0.0,2.0,80,0.00,,---,0.00,VWS V14.01,2013-03-27 08:42:00,
2013-03-27 03:43:00,31.2,25.8,30.13,NW,313,0.0,0.0,80,0.00,,---,0.00,VWS V14.01,2013-03-27 08:43:00,
2013-03-27 03:45:00,31.2,25.8,30.13,NW,313,0.0,0.0,80,0.00,,---,0.00,VWS V14.01,2013-03-27 08:45:00,
2013-03-27 03:47:00,31.2,25.8,30.13,NW,323,1.0,2.0,80,0.00,,---,0.00,VWS V14.01,2013-03-27 08:47:00,
2013-03-27 03:48:00,31.2,25.8,30.13,NW,323,0.0,0.0,80,0.00,,---,0.00,VWS V14.01,2013-03-27 08:48:00,
2013-03-27 03:52:00,31.2,25.8,30.13,WNW,295,0.0,0.0,80,0.00,,---,0.00,VWS V14.01,2013-03-27 08:52:00,
2013-03-27 03:53:00,31.2,25.8,30.13,WNW,295,0.0,0.0,80,0.00,,---,0.00,VWS V14.01,2013-03-27 08:53:00,
2013-03-27 03:54:00,31.0,25.6,30.13,WNW,295,1.0,2.0,80,0.00,,---,0.00,VWS V14.01,2013-03-27 08:54:00,
2013-03-27 03:57:00,31.0,25.6,30.13,WNW,301,0.0,1.0,80,0.00,,---,0.00,VWS V14.01,2013-03-27 08:57:00,
2013-03-27 03:58:00,31.0,25.6,30.13,WNW,301,0.0,0.0,80,0.00,,---,0.00,VWS V14.01,2013-03-27 08:58:00,
2013-03-27 04:00:00,31.0,25.6,30.13,WNW,301,0.0,1.0,80,0.00,,---,0.00,VWS V14.01,2013-03-27 09:00:00,
2013-03-27 04:03:00,31.0,25.6,30.13,WNW,301,0.0,1.0,80,0.00,,---,0.00,VWS V14.01,2013-03-27 09:03:00,
2013-03-27 04:04:00,31.0,25.6,30.13,WNW,301,0.0,0.0,80,0.00,,---,0.00,VWS V14.01,2013-03-27 09:04:00,
2013-03-27 04:08:00,30.9,25.5,30.13,WNW,301,1.0,2.0,80,0.00,,---,0.00,VWS V14.01,2013-03-27 09:08:00,
2013-03-27 04:09:00,30.9,25.5,30.13,WNW,301,0.0,1.0,80,0.00,,---,0.00,VWS V14.01,2013-03-27 09:09:00,
2013-03-27 04:10:00,30.9,25.5,30.13,WNW,301,0.0,0.0,80,0.00,,---,0.00,VWS V14.01,2013-03-27 09:10:00,
2013-03-27 04:14:00,30.7,25.3,30.13,WNW,301,0.0,0.0,80,0.00,,---,0.00,VWS V14.01,2013-03-27 09:14:00,
2013-03-27 04:15:00,30.7,25.3,30.13,WNW,301,0.0,0.0,80,0.00,,---,0.00,VWS V14.01,2013-03-27 09:15:00,
2013-03-27 04:17:00,30.7,25.6,30.13,WNW,301,0.0,0.0,81,0.00,,---,0.00,VWS V14.01,2013-03-27 09:17:00,
2013-03-27 04:20:00,30.6,25.5,30.13,WNW,301,0.0,0.0,81,0.00,,---,0.00,VWS V14.01,2013-03-27 09:20:00,
2013-03-27 04:21:00,30.6,25.5,30.13,WNW,301,0.0,1.0,81,0.00,,---,0.00,VWS V14.01,2013-03-27 09:21:00,
2013-03-27 04:24:00,30.6,25.5,30.13,WNW,301,0.0,0.0,81,0.00,,---,0.00,VWS V14.01,2013-03-27 09:24:00,
2013-03-27 04:26:00,30.4,25.3,30.13,WNW,301,0.0,2.0,81,0.00,,---,0.00,VWS V14.01,2013-03-27 09:26:00,
2013-03-27 04:27:00,30.4,25.3,30.13,WNW,301,0.0,0.0,81,0.00,,---,0.00,VWS V14.01,2013-03-27 09:27:00,
2013-03-27 04:28:00,30.4,25.3,30.13,WNW,301,0.0,0.0,81,0.00,,---,0.00,VWS V14.01,2013-03-27 09:28:00,
2013-03-27 04:31:00,30.4,25.3,30.13,WNW,301,0.0,0.0,81,0.00,,---,0.00,VWS V14.01,2013-03-27 09:31:00,
2013-03-27 04:32:00,30.4,25.3,30.13,WNW,301,0.0,1.0,81,0.00,,---,0.00,VWS V14.01,2013-03-27 09:32:00,
2013-03-27 04:35:00,30.3,25.5,30.13,WNW,301,1.0,1.0,82,0.00,,---,0.00,VWS V14.01,2013-03-27 09:35:00,
2013-03-27 04:37:00,30.3,25.5,30.13,WNW,301,0.0,0.0,82,0.00,,---,0.00,VWS V14.01,2013-03-27 09:37:00,
2013-03-27 04:38:00,30.3,25.5,30.13,WNW,301,0.0,0.0,82,0.00,,---,0.00,VWS V14.01,2013-03-27 09:38:00,
2013-03-27 04:41:00,30.3,25.5,30.13,WNW,301,0.0,0.0,82,0.00,,---,0.00,VWS V14.01,2013-03-27 09:41:00,
2013-03-27 04:42:00,30.3,25.5,30.13,WNW,301,0.0,1.0,82,0.00,,---,0.00,VWS V14.01,2013-03-27 09:42:00,
2013-03-27 04:43:00,30.3,25.5,30.13,WNW,301,0.0,0.0,82,0.00,,---,0.00,VWS V14.01,2013-03-27 09:43:00,
2013-03-27 04:46:00,30.3,25.5,30.13,WNW,301,1.0,1.0,82,0.00,,---,0.00,VWS V14.01,2013-03-27 09:46:00,
2013-03-27 04:47:00,30.3,25.5,30.13,WNW,301,0.0,1.0,82,0.00,,---,0.00,VWS V14.01,2013-03-27 09:47:00,
2013-03-27 04:49:00,30.3,25.5,30.13,WNW,301,0.0,1.0,82,0.00,,---,0.00,VWS V14.01,2013-03-27 09:49:00,
2013-03-27 04:50:00,30.3,25.5,30.13,WNW,301,0.0,1.0,82,0.00,,---,0.00,VWS V14.01,2013-03-27 09:50:00,
2013-03-27 04:52:00,30.3,25.5,30.13,WNW,301,0.0,0.0,82,0.00,,---,0.00,VWS V14.01,2013-03-27 09:52:00,
2013-03-27 04:53:00,30.3,25.5,30.13,WNW,301,0.0,0.0,82,0.00,,---,0.00,VWS V14.01,2013-03-27 09:53:00,
2013-03-27 04:54:00,30.3,25.5,30.13,WNW,301,0.0,0.0,82,0.00,,---,0.00,VWS V14.01,2013-03-27 09:54:00,
2013-03-27 04:55:00,30.3,25.5,30.13,WNW,301,0.0,0.0,82,0.00,,---,0.00,VWS V14.01,2013-03-27 09:55:00,
2013-03-27 04:58:00,30.3,25.5,30.13,WNW,301,0.0,0.0,82,0.00,,---,0.00,VWS V14.01,2013-03-27 09:58:00,
2013-03-27 04:59:00,30.3,25.5,30.13,WNW,301,0.0,0.0,82,0.00,,---,0.00,VWS V14.01,2013-03-27 09:59:00,
2013-03-27 05:01:00,30.3,25.5,30.13,WNW,301,0.0,0.0,82,0.00,,---,0.00,VWS V14.01,2013-03-27 10:01:00,
2013-03-27 05:02:00,30.1,25.3,30.13,WNW,301,0.0,0.0,82,0.00,,---,0.00,VWS V14.01,2013-03-27 10:02:00,
2013-03-27 05:04:00,30.1,25.3,30.13,WNW,301,0.0,0.0,82,0.00,,---,0.00,VWS V14.01,2013-03-27 10:04:00,
2013-03-27 05:07:00,30.1,25.3,30.13,WNW,301,0.0,0.0,82,0.00,,---,0.00,VWS V14.01,2013-03-27 10:07:00,
2013-03-27 05:09:00,30.1,25.3,30.13,WNW,301,0.0,0.0,82,0.00,,---,0.00,VWS V14.01,2013-03-27 10:09:00,
2013-03-27 05:11:00,30.0,25.2,30.13,WNW,301,0.0,0.0,82,0.00,,---,0.00,VWS V14.01,2013-03-27 10:11:00,
2013-03-27 05:12:00,30.0,25.2,30.13,WNW,301,1.0,1.0,82,0.00,,---,0.00,VWS V14.01,2013-03-27 10:12:00,
2013-03-27 05:13:00,30.0,25.2,30.13,WNW,301,0.0,1.0,82,0.00,,---,0.00,VWS V14.01,2013-03-27 10:13:00,
2013-03-27 05:14:00,30.0,25.2,30.13,WNW,301,0.0,0.0,82,0.00,,---,0.00,VWS V14.01,2013-03-27 10:14:00,
2013-03-27 05:18:00,30.0,25.2,30.13,WNW,301,0.0,0.0,82,0.00,,---,0.00,VWS V14.01,2013-03-27 10:18:00,
2013-03-27 05:19:00,30.0,25.2,30.13,WNW,301,0.0,0.0,82,0.00,,---,0.00,VWS V14.01,2013-03-27 10:19:00,
2013-03-27 05:24:00,29.8,25.3,30.13,WNW,301,0.0,0.0,83,0.00,,---,0.00,VWS V14.01,2013-03-27 10:24:00,
2013-03-27 05:25:00,29.8,25.3,30.13,WNW,301,0.0,0.0,83,0.00,,---,0.00,VWS V14.01,2013-03-27 10:25:00,
2013-03-27 05:26:00,29.8,25.3,30.13,WNW,301,0.0,0.0,83,0.00,,---,0.00,VWS V14.01,2013-03-27 10:26:00,
2013-03-27 05:30:00,29.8,25.3,30.13,WNW,301,0.0,0.0,83,0.00,,---,0.00,VWS V14.01,2013-03-27 10:30:00,
2013-03-27 05:31:00,29.7,25.2,30.13,WNW,301,0.0,0.0,83,0.00,,---,0.00,VWS V14.01,2013-03-27 10:31:00,
2013-03-27 05:32:00,29.7,25.2,30.13,WNW,301,0.0,2.0,83,0.00,,---,0.00,VWS V14.01,2013-03-27 10:32:00,
2013-03-27 05:35:00,29.8,25.3,30.13,WNW,301,0.0,0.0,83,0.00,,---,0.00,VWS V14.01,2013-03-27 10:35:00,
2013-03-27 05:36:00,29.8,25.3,30.13,WNW,301,0.0,0.0,83,0.00,,---,0.00,VWS V14.01,2013-03-27 10:36:00,
2013-03-27 05:37:00,29.8,25.3,30.13,WNW,301,0.0,0.0,83,0.00,,---,0.00,VWS V14.01,2013-03-27 10:37:00,
2013-03-27 05:40:00,29.8,25.3,30.13,WNW,301,0.0,1.0,83,0.00,,---,0.00,VWS V14.01,2013-03-27 10:40:00,
2013-03-27 05:42:00,29.7,25.2,30.13,WNW,301,0.0,0.0,83,0.00,,---,0.00,VWS V14.01,2013-03-27 10:42:00,
2013-03-27 05:43:00,29.7,25.2,30.13,WNW,301,0.0,0.0,83,0.00,,---,0.00,VWS V14.01,2013-03-27 10:43:00,
2013-03-27 05:44:00,29.7,25.2,30.13,WNW,301,0.0,0.0,83,0.00,,---,0.00,VWS V14.01,2013-03-27 10:44:00,
2013-03-27 05:46:00,29.7,25.2,30.13,WNW,301,0.0,0.0,83,0.00,,---,0.00,VWS V14.01,2013-03-27 10:46:00,
2013-03-27 05:47:00,29.7,25.2,30.13,WNW,301,0.0,0.0,83,0.00,,---,0.00,VWS V14.01,2013-03-27 10:47:00,
2013-03-27 05:49:00,29.5,25.0,30.13,WNW,301,0.0,0.0,83,0.00,,---,0.00,VWS V14.01,2013-03-27 10:49:00,
2013-03-27 05:50:00,29.5,25.0,30.13,WNW,301,0.0,0.0,83,0.00,,---,0.00,VWS V14.01,2013-03-27 10:50:00,
2013-03-27 05:53:00,29.5,25.0,30.13,WNW,301,0.0,0.0,83,0.00,,---,0.00,VWS V14.01,2013-03-27 10:53:00,
2013-03-27 05:54:00,29.5,25.0,30.13,WNW,301,0.0,0.0,83,0.00,,---,0.00,VWS V14.01,2013-03-27 10:54:00,
2013-03-27 05:55:00,29.4,24.9,30.13,WNW,301,0.0,0.0,83,0.00,,---,0.00,VWS V14.01,2013-03-27 10:55:00,
2013-03-27 05:58:00,29.4,24.9,30.13,WNW,301,0.0,0.0,83,0.00,,---,0.00,VWS V14.01,2013-03-27 10:58:00,
2013-03-27 05:59:00,29.4,24.9,30.13,WNW,301,0.0,0.0,83,0.00,,---,0.00,VWS V14.01,2013-03-27 10:59:00,
2013-03-27 06:00:00,29.4,24.9,30.13,WNW,301,0.0,0.0,83,0.00,,---,0.00,VWS V14.01,2013-03-27 11:00:00,
2013-03-27 06:03:00,29.3,24.8,30.13,WNW,301,0.0,0.0,83,0.00,,---,0.00,VWS V14.01,2013-03-27 11:03:00,
2013-03-27 06:04:00,29.3,24.8,30.13,WNW,301,0.0,0.0,83,0.00,,---,0.00,VWS V14.01,2013-03-27 11:04:00,
2013-03-27 06:05:00,29.3,24.8,30.13,WNW,301,0.0,0.0,83,0.00,,---,0.00,VWS V14.01,2013-03-27 11:05:00,
2013-03-27 06:07:00,29.1,24.6,30.13,WNW,301,0.0,0.0,83,0.00,,---,0.00,VWS V14.01,2013-03-27 11:07:00,
2013-03-27 06:10:00,29.1,24.6,30.13,WNW,301,0.0,0.0,83,0.00,,---,0.00,VWS V14.01,2013-03-27 11:10:00,
2013-03-27 06:11:00,29.1,24.6,30.13,WNW,301,0.0,0.0,83,0.00,,---,0.00,VWS V14.01,2013-03-27 11:11:00,
2013-03-27 06:13:00,29.0,24.5,30.13,WNW,301,0.0,0.0,83,0.00,,---,0.00,VWS V14.01,2013-03-27 11:13:00,
2013-03-27 06:15:00,29.0,24.5,30.14,WNW,301,0.0,0.0,83,0.00,,---,0.00,VWS V14.01,2013-03-27 11:15:00,
2013-03-27 06:16:00,28.8,24.3,30.14,WNW,301,0.0,0.0,83,0.00,,---,0.00,VWS V14.01,2013-03-27 11:16:00,
2013-03-27 06:20:00,28.8,24.6,30.14,WNW,301,0.0,0.0,84,0.00,,---,0.00,VWS V14.01,2013-03-27 11:20:00,
2013-03-27 06:22:00,28.7,24.5,30.14,WNW,301,0.0,0.0,84,0.00,,---,0.00,VWS V14.01,2013-03-27 11:22:00,
2013-03-27 06:23:00,28.7,24.5,30.14,WNW,301,0.0,0.0,84,0.00,,---,0.00,VWS V14.01,2013-03-27 11:23:00,
2013-03-27 06:25:00,28.7,24.5,30.14,WNW,301,0.0,0.0,84,0.00,,---,0.00,VWS V14.01,2013-03-27 11:25:00,
2013-03-27 06:26:00,28.7,24.5,30.14,WNW,301,0.0,0.0,84,0.00,,---,0.00,VWS V14.01,2013-03-27 11:26:00,
2013-03-27 06:28:00,28.5,24.3,30.14,WNW,301,0.0,0.0,84,0.00,,---,0.00,VWS V14.01,2013-03-27 11:28:00,
2013-03-27 06:30:00,28.5,24.3,30.14,WNW,301,0.0,0.0,84,0.00,,---,0.00,VWS V14.01,2013-03-27 11:30:00,
2013-03-27 06:33:00,28.5,24.3,30.14,WNW,301,0.0,0.0,84,0.00,,---,0.00,VWS V14.01,2013-03-27 11:33:00,
2013-03-27 06:34:00,28.4,24.2,30.14,WNW,301,0.0,0.0,84,0.00,,---,0.00,VWS V14.01,2013-03-27 11:34:00,
2013-03-27 06:38:00,28.4,24.2,30.14,WNW,301,0.0,0.0,84,0.00,,---,0.00,VWS V14.01,2013-03-27 11:38:00,
2013-03-27 06:40:00,28.4,24.2,30.14,WNW,301,0.0,0.0,84,0.00,,---,0.00,VWS V14.01,2013-03-27 11:40:00,
2013-03-27 06:44:00,28.4,24.2,30.15,WNW,301,0.0,0.0,84,0.00,,---,0.00,VWS V14.01,2013-03-27 11:44:00,
2013-03-27 06:45:00,28.4,24.2,30.15,WNW,301,0.0,0.0,84,0.00,,---,0.00,VWS V14.01,2013-03-27 11:45:00,
2013-03-27 06:49:00,28.2,24.0,30.15,WNW,301,0.0,0.0,84,0.00,,---,0.00,VWS V14.01,2013-03-27 11:49:00,
2013-03-27 06:50:00,28.2,24.0,30.15,WNW,301,0.0,0.0,84,0.00,,---,0.00,VWS V14.01,2013-03-27 11:50:00,
2013-03-27 06:52:00,28.2,24.3,30.15,WNW,301,0.0,0.0,85,0.00,,---,0.00,VWS V14.01,2013-03-27 11:52:00,
2013-03-27 06:54:00,28.2,24.3,30.15,WNW,301,0.0,0.0,85,0.00,,---,0.00,VWS V14.01,2013-03-27 11:54:00,
2013-03-27 06:55:00,28.2,24.3,30.15,WNW,301,0.0,0.0,85,0.00,,---,0.00,VWS V14.01,2013-03-27 11:55:00,
2013-03-27 06:57:00,28.2,24.3,30.15,WNW,301,0.0,0.0,85,0.00,,---,0.00,VWS V14.01,2013-03-27 11:57:00,
2013-03-27 06:58:00,28.2,24.3,30.15,WNW,301,1.0,1.0,85,0.00,,---,0.00,VWS V14.01,2013-03-27 11:58:00,
2013-03-27 07:01:00,28.2,24.3,30.16,WNW,301,0.0,0.0,85,0.00,,---,0.00,VWS V14.01,2013-03-27 12:01:00,
2013-03-27 07:02:00,28.2,24.3,30.16,WNW,301,0.0,0.0,85,0.00,,---,0.00,VWS V14.01,2013-03-27 12:02:00,
2013-03-27 07:03:00,28.2,24.3,30.16,WNW,301,0.0,0.0,85,0.00,,---,0.00,VWS V14.01,2013-03-27 12:03:00,
2013-03-27 07:07:00,28.4,24.5,30.16,WNW,301,0.0,0.0,85,0.00,,---,0.00,VWS V14.01,2013-03-27 12:07:00,
2013-03-27 07:08:00,28.4,24.5,30.16,WNW,301,0.0,0.0,85,0.00,,---,0.00,VWS V14.01,2013-03-27 12:08:00,
2013-03-27 07:09:00,28.4,24.5,30.16,WNW,301,0.0,0.0,85,0.00,,---,0.00,VWS V14.01,2013-03-27 12:09:00,
2013-03-27 07:13:00,28.5,24.6,30.16,WNW,301,0.0,0.0,85,0.00,,---,0.00,VWS V14.01,2013-03-27 12:13:00,
2013-03-27 07:14:00,28.5,24.6,30.16,WNW,301,0.0,0.0,85,0.00,,---,0.00,VWS V14.01,2013-03-27 12:14:00,
2013-03-27 07:15:00,28.5,24.6,30.16,WNW,301,0.0,0.0,85,0.00,,---,0.00,VWS V14.01,2013-03-27 12:15:00,
2013-03-27 07:16:00,28.5,24.6,30.16,WNW,301,0.0,0.0,85,0.00,,---,0.00,VWS V14.01,2013-03-27 12:16:00,
2013-03-27 07:19:00,28.7,24.5,30.16,WNW,301,0.0,0.0,84,0.00,,---,0.00,VWS V14.01,2013-03-27 12:19:00,
2013-03-27 07:20:00,28.7,24.5,30.16,WNW,301,0.0,0.0,84,0.00,,---,0.00,VWS V14.01,2013-03-27 12:20:00,
2013-03-27 07:22:00,28.7,24.5,30.16,WNW,301,0.0,0.0,84,0.00,,---,0.00,VWS V14.01,2013-03-27 12:22:00,
2013-03-27 07:24:00,28.8,24.6,30.16,WNW,301,2.0,3.0,84,0.00,,---,0.00,VWS V14.01,2013-03-27 12:24:00,
2013-03-27 07:27:00,28.8,24.6,30.16,WNW,301,1.0,2.0,84,0.00,,---,0.00,VWS V14.01,2013-03-27 12:27:00,
2013-03-27 07:29:00,29.0,24.8,30.17,WNW,301,0.0,1.0,84,0.00,,---,0.00,VWS V14.01,2013-03-27 12:29:00,
2013-03-27 07:32:00,29.0,24.8,30.17,WNW,301,1.0,2.0,84,0.00,,---,0.00,VWS V14.01,2013-03-27 12:32:00,
2013-03-27 07:34:00,29.0,24.8,30.17,WNW,301,0.0,1.0,84,0.00,,---,0.00,VWS V14.01,2013-03-27 12:34:00,
2013-03-27 07:36:00,29.0,24.5,30.17,WNW,287,2.0,2.0,83,0.00,,---,0.00,VWS V14.01,2013-03-27 12:36:00,
2013-03-27 07:37:00,29.1,24.6,30.17,WNW,287,0.0,0.0,83,0.00,,---,0.00,VWS V14.01,2013-03-27 12:37:00,
2013-03-27 07:38:00,29.1,24.6,30.17,WNW,287,1.0,1.0,83,0.00,,---,0.00,VWS V14.01,2013-03-27 12:38:00,
2013-03-27 07:39:00,29.1,24.6,30.17,WNW,287,0.0,0.0,83,0.00,,---,0.00,VWS V14.01,2013-03-27 12:39:00,
2013-03-27 07:42:00,29.1,24.6,30.17,WNW,287,1.0,2.0,83,0.00,,---,0.00,VWS V14.01,2013-03-27 12:42:00,
2013-03-27 07:44:00,29.1,24.6,30.17,WNW,287,1.0,2.0,83,0.00,,---,0.00,VWS V14.01,2013-03-27 12:44:00,
2013-03-27 07:45:00,29.3,24.8,30.17,WNW,287,1.0,1.0,83,0.00,,---,0.00,VWS V14.01,2013-03-27 12:45:00,
2013-03-27 07:47:00,29.3,24.8,30.17,WNW,287,1.0,1.0,83,0.00,,---,0.00,VWS V14.01,2013-03-27 12:47:00,
2013-03-27 07:48:00,29.4,24.9,30.17,WNW,287,0.0,1.0,83,0.00,,---,0.00,VWS V14.01,2013-03-27 12:48:00,
2013-03-27 07:50:00,29.4,24.9,30.17,WNW,287,0.0,2.0,83,0.00,,---,0.00,VWS V14.01,2013-03-27 12:50:00,
2013-03-27 07:53:00,29.5,25.0,30.17,WNW,287,2.0,2.0,83,0.00,,---,0.00,VWS V14.01,2013-03-27 12:53:00,
2013-03-27 07:55:00,29.7,25.2,30.17,WNW,287,0.0,0.0,83,0.00,,---,0.00,VWS V14.01,2013-03-27 12:55:00,
2013-03-27 07:56:00,29.8,25.3,30.17,WNW,287,0.0,0.0,83,0.00,,---,0.00,VWS V14.01,2013-03-27 12:56:00,
2013-03-27 07:58:00,29.8,25.3,30.17,WNW,287,0.0,0.0,83,0.00,,---,0.00,VWS V14.01,2013-03-27 12:58:00,
2013-03-27 07:59:00,30.0,25.5,30.17,WNW,287,0.0,2.0,83,0.00,,---,0.00,VWS V14.01,2013-03-27 12:59:00,
2013-03-27 08:01:00,30.0,25.5,30.17,WNW,287,2.0,2.0,83,0.00,,---,0.00,VWS V14.01,2013-03-27 13:01:00,
2013-03-27 08:03:00,30.1,25.3,30.17,WNW,287,0.0,3.0,82,0.00,,---,0.00,VWS V14.01,2013-03-27 13:03:00,
2013-03-27 08:05:00,30.3,25.5,30.17,WNW,287,1.0,3.0,82,0.00,,---,0.00,VWS V14.01,2013-03-27 13:05:00,
2013-03-27 08:08:00,30.4,25.6,30.17,WNW,287,1.0,1.0,82,0.00,,---,0.00,VWS V14.01,2013-03-27 13:08:00,
2013-03-27 08:09:00,30.6,25.8,30.17,WNW,288,1.0,1.0,82,0.00,,---,0.00,VWS V14.01,2013-03-27 13:09:00,
2013-03-27 08:12:00,30.7,25.6,30.17,WNW,287,1.0,1.0,81,0.00,,---,0.00,VWS V14.01,2013-03-27 13:12:00,
2013-03-27 08:13:00,30.7,25.6,30.17,WNW,287,0.0,1.0,81,0.00,,---,0.00,VWS V14.01,2013-03-27 13:13:00,
2013-03-27 08:14:00,30.9,25.8,30.18,WNW,287,2.0,3.0,81,0.00,,---,0.00,VWS V14.01,2013-03-27 13:14:00,
2013-03-27 08:15:00,30.9,25.8,30.18,WNW,288,3.0,3.0,81,0.00,,---,0.00,VWS V14.01,2013-03-27 13:15:00,
2013-03-27 08:18:00,31.0,25.6,30.18,WNW,288,1.0,2.0,80,0.00,,---,0.00,VWS V14.01,2013-03-27 13:18:00,
2013-03-27 08:19:00,31.2,25.8,30.18,WNW,287,0.0,1.0,80,0.00,,---,0.00,VWS V14.01,2013-03-27 13:19:00,
2013-03-27 08:22:00,31.3,25.9,30.18,WNW,288,0.0,1.0,80,0.00,,---,0.00,VWS V14.01,2013-03-27 13:22:00,
2013-03-27 08:23:00,31.3,25.6,30.18,NW,326,3.0,3.0,79,0.00,,---,0.00,VWS V14.01,2013-03-27 13:23:00,
2013-03-27 08:24:00,31.3,25.6,30.18,NW,323,3.0,3.0,79,0.00,,---,0.00,VWS V14.01,2013-03-27 13:24:00,
2013-03-27 08:27:00,31.5,25.8,30.18,NW,319,2.0,2.0,79,0.00,,---,0.00,VWS V14.01,2013-03-27 13:27:00,
2013-03-27 08:29:00,31.6,25.5,30.18,NW,314,3.0,3.0,78,0.00,,---,0.00,VWS V14.01,2013-03-27 13:29:00,
2013-03-27 08:30:00,31.6,25.5,30.18,NW,314,2.0,3.0,78,0.00,,---,0.00,VWS V14.01,2013-03-27 13:30:00,
2013-03-27 08:32:00,31.8,25.7,30.18,NW,314,1.0,1.0,78,0.00,,---,0.00,VWS V14.01,2013-03-27 13:32:00,
2013-03-27 08:33:00,31.8,25.7,30.18,NW,314,2.0,3.0,78,0.00,,---,0.00,VWS V14.01,2013-03-27 13:33:00,
2013-03-27 08:34:00,31.9,25.8,30.18,NW,314,2.0,2.0,78,0.00,,---,0.00,VWS V14.01,2013-03-27 13:34:00,
2013-03-27 08:35:00,31.9,25.8,30.18,NW,314,0.0,2.0,78,0.00,,---,0.00,VWS V14.01,2013-03-27 13:35:00,
2013-03-27 08:39:00,32.1,25.7,30.18,NNW,328,1.0,2.0,77,0.00,,---,0.00,VWS V14.01,2013-03-27 13:39:00,
2013-03-27 08:40:00,32.1,25.7,30.18,NNW,328,1.0,2.0,77,0.00,,---,0.00,VWS V14.01,2013-03-27 13:40:00,
2013-03-27 08:42:00,32.2,25.8,30.18,NNW,328,1.0,2.0,77,0.00,,---,0.00,VWS V14.01,2013-03-27 13:42:00,
2013-03-27 08:44:00,32.2,25.8,30.18,NNW,328,1.0,2.0,77,0.00,,---,0.00,VWS V14.01,2013-03-27 13:44:00,
2013-03-27 08:46:00,32.4,26.0,30.18,West,270,1.0,3.0,77,0.00,,---,0.00,VWS V14.01,2013-03-27 13:46:00,
2013-03-27 08:47:00,32.4,26.0,30.18,West,270,0.0,3.0,77,0.00,,---,0.00,VWS V14.01,2013-03-27 13:47:00,
2013-03-27 08:48:00,32.4,26.0,30.18,West,270,1.0,1.0,77,0.00,,---,0.00,VWS V14.01,2013-03-27 13:48:00,
2013-03-27 08:50:00,32.5,26.1,30.18,West,270,0.0,1.0,77,0.00,,---,0.00,VWS V14.01,2013-03-27 13:50:00,
2013-03-27 08:51:00,32.5,26.1,30.18,NNW,340,2.0,3.0,77,0.00,,---,0.00,VWS V14.01,2013-03-27 13:51:00,
2013-03-27 08:52:00,32.7,26.3,30.18,NW,315,2.0,2.0,77,0.00,,---,0.00,VWS V14.01,2013-03-27 13:52:00,
2013-03-27 08:53:00,32.7,26.3,30.18,NW,315,1.0,2.0,77,0.00,,---,0.00,VWS V14.01,2013-03-27 13:53:00,
2013-03-27 08:56:00,32.8,26.1,30.18,NW,315,1.0,2.0,76,0.00,,---,0.00,VWS V14.01,2013-03-27 13:56:00,
2013-03-27 08:57:00,32.8,26.1,30.18,NW,315,1.0,1.0,76,0.00,,---,0.00,VWS V14.01,2013-03-27 13:57:00,
2013-03-27 08:58:00,32.8,26.1,30.18,NW,315,0.0,0.0,76,0.00,,---,0.00,VWS V14.01,2013-03-27 13:58:00,
2013-03-27 09:00:00,32.9,26.2,30.18,NW,315,0.0,0.0,76,0.00,,---,0.00,VWS V14.01,2013-03-27 14:00:00,
2013-03-27 09:02:00,33.1,26.4,30.18,WNW,288,1.0,3.0,76,0.00,,---,0.00,VWS V14.01,2013-03-27 14:02:00,
2013-03-27 09:05:00,33.2,26.1,30.18,WNW,288,0.0,3.0,75,0.00,,---,0.00,VWS V14.01,2013-03-27 14:05:00,
2013-03-27 09:06:00,33.4,26.3,30.18,NW,320,1.0,3.0,75,0.00,,---,0.00,VWS V14.01,2013-03-27 14:06:00,
2013-03-27 09:08:00,33.5,26.1,30.18,NNW,343,1.0,3.0,74,0.00,,---,0.00,VWS V14.01,2013-03-27 14:08:00,
2013-03-27 09:11:00,33.7,26.3,30.18,NNW,342,2.0,2.0,74,0.00,,---,0.00,VWS V14.01,2013-03-27 14:11:00,
2013-03-27 09:12:00,33.8,26.4,30.18,NNW,342,0.0,2.0,74,0.00,,---,0.00,VWS V14.01,2013-03-27 14:12:00,
2013-03-27 09:13:00,33.8,26.4,30.18,NNW,341,0.0,1.0,74,0.00,,---,0.00,VWS V14.01,2013-03-27 14:13:00,
2013-03-27 09:16:00,34.1,26.4,30.18,WNW,300,1.0,1.0,73,0.00,,---,0.00,VWS V14.01,2013-03-27 14:16:00,
2013-03-27 09:18:00,34.3,26.2,30.18,North,353,4.0,4.0,72,0.00,,---,0.00,VWS V14.01,2013-03-27 14:18:00,
2013-03-27 09:19:00,34.3,26.2,30.18,North,353,4.0,4.0,72,0.00,,---,0.00,VWS V14.01,2013-03-27 14:19:00,
2013-03-27 09:22:00,34.6,26.5,30.18,NNW,328,2.0,2.0,72,0.00,,---,0.00,VWS V14.01,2013-03-27 14:22:00,
2013-03-27 09:24:00,34.7,26.3,30.18,NNW,345,2.0,3.0,71,0.00,,---,0.00,VWS V14.01,2013-03-27 14:24:00,
2013-03-27 09:26:00,34.9,26.1,30.18,North,357,4.0,4.0,70,0.00,,---,0.00,VWS V14.01,2013-03-27 14:26:00,
2013-03-27 09:28:00,35.0,26.2,30.18,NNW,328,3.0,3.0,70,0.00,,---,0.00,VWS V14.01,2013-03-27 14:28:00,
2013-03-27 09:29:00,35.2,26.1,30.18,NNW,328,1.0,3.0,69,0.00,,---,0.00,VWS V14.01,2013-03-27 14:29:00,
2013-03-27 09:30:00,35.2,26.1,30.18,NNW,328,1.0,2.0,69,0.00,,---,0.00,VWS V14.01,2013-03-27 14:30:00,
2013-03-27 09:33:00,35.5,26.4,30.18,NNW,328,3.0,4.0,69,0.00,,---,0.00,VWS V14.01,2013-03-27 14:33:00,
2013-03-27 09:34:00,35.5,26.4,30.18,NNW,336,3.0,4.0,69,0.00,,---,0.00,VWS V14.01,2013-03-27 14:34:00,
2013-03-27 09:35:00,35.6,26.1,30.18,NNW,335,2.0,3.0,68,0.00,,---,0.00,VWS V14.01,2013-03-27 14:35:00,
2013-03-27 09:36:00,35.6,26.1,30.18,NNW,335,1.0,2.0,68,0.00,,---,0.00,VWS V14.01,2013-03-27 14:36:00,
2013-03-27 09:38:00,35.9,26.4,30.18,WNW,283,2.0,2.0,68,0.00,,---,0.00,VWS V14.01,2013-03-27 14:38:00,
2013-03-27 09:40:00,36.0,26.5,30.18,WNW,291,2.0,4.0,68,0.00,,---,0.00,VWS V14.01,2013-03-27 14:40:00,
2013-03-27 09:42:00,36.2,26.7,30.18,NW,324,2.0,2.0,68,0.00,,---,0.00,VWS V14.01,2013-03-27 14:42:00,
2013-03-27 09:43:00,36.2,26.3,30.18,NNW,330,5.0,5.0,67,0.00,,---,0.00,VWS V14.01,2013-03-27 14:43:00,
2013-03-27 09:46:00,36.3,26.4,30.18,NNW,338,1.0,2.0,67,0.00,,---,0.00,VWS V14.01,2013-03-27 14:46:00,
2013-03-27 09:48:00,36.5,26.6,30.18,West,281,2.0,2.0,67,0.00,,---,0.00,VWS V14.01,2013-03-27 14:48:00,
2013-03-27 09:50:00,36.8,26.5,30.18,West,281,0.0,2.0,66,0.00,,---,0.00,VWS V14.01,2013-03-27 14:50:00,
2013-03-27 09:53:00,36.9,26.6,30.18,North,0,1.0,2.0,66,0.00,,---,0.00,VWS V14.01,2013-03-27 14:53:00,
2013-03-27 09:55:00,37.0,26.3,30.18,North,349,2.0,2.0,65,0.00,,---,0.00,VWS V14.01,2013-03-27 14:55:00,
2013-03-27 09:57:00,37.2,26.5,30.18,WNW,289,1.0,4.0,65,0.00,,---,0.00,VWS V14.01,2013-03-27 14:57:00,
2013-03-27 09:58:00,37.3,26.6,30.17,NNW,343,3.0,3.0,65,0.00,,---,0.00,VWS V14.01,2013-03-27 14:58:00,
2013-03-27 10:01:00,37.5,25.7,30.17,North,357,2.0,5.0,62,0.00,,---,0.00,VWS V14.01,2013-03-27 15:01:00,
2013-03-27 10:03:00,37.5,25.7,30.17,North,0,4.0,4.0,62,0.00,,---,0.00,VWS V14.01,2013-03-27 15:03:00,
2013-03-27 10:04:00,37.6,25.8,30.17,NNW,336,1.0,6.0,62,0.00,,---,0.00,VWS V14.01,2013-03-27 15:04:00,
2013-03-27 10:08:00,37.8,25.6,30.17,North,11,2.0,2.0,61,0.00,,---,0.00,VWS V14.01,2013-03-27 15:08:00,
2013-03-27 10:10:00,37.9,25.3,30.17,NW,319,1.0,2.0,60,0.00,,---,0.00,VWS V14.01,2013-03-27 15:10:00,
2013-03-27 10:12:00,37.9,25.3,30.17,NW,310,2.0,4.0,60,0.00,,---,0.00,VWS V14.01,2013-03-27 15:12:00,
2013-03-27 10:13:00,38.0,25.0,30.18,NNW,332,2.0,3.0,59,0.00,,---,0.00,VWS V14.01,2013-03-27 15:13:00,
2013-03-27 10:15:00,38.2,25.1,30.18,NW,326,3.0,4.0,59,0.00,,---,0.00,VWS V14.01,2013-03-27 15:15:00,
2013-03-27 10:16:00,38.2,25.5,30.18,NW,320,2.0,3.0,60,0.00,,---,0.00,VWS V14.01,2013-03-27 15:16:00,
2013-03-27 10:19:00,38.3,25.2,30.18,NNW,333,1.0,3.0,59,0.00,,---,0.00,VWS V14.01,2013-03-27 15:19:00,
2013-03-27 10:20:00,38.3,25.2,30.18,North,0,3.0,3.0,59,0.00,,---,0.00,VWS V14.01,2013-03-27 15:20:00,
2013-03-27 10:21:00,38.5,25.0,30.18,North,350,3.0,3.0,58,0.00,,---,0.00,VWS V14.01,2013-03-27 15:21:00,
2013-03-27 10:24:00,38.6,25.5,30.18,West,271,1.0,4.0,59,0.00,,---,0.00,VWS V14.01,2013-03-27 15:24:00,
2013-03-27 10:26:00,38.8,25.3,30.18,NW,316,3.0,3.0,58,0.00,,---,0.00,VWS V14.01,2013-03-27 15:26:00,
2013-03-27 10:27:00,38.8,25.3,30.18,NW,317,3.0,4.0,58,0.00,,---,0.00,VWS V14.01,2013-03-27 15:27:00,
2013-03-27 10:32:00,38.8,25.3,30.18,North,8,1.0,4.0,58,0.00,,---,0.00,VWS V14.01,2013-03-27 15:32:00,
2013-03-27 10:33:00,38.8,25.3,30.18,North,0,5.0,5.0,58,0.00,,---,0.00,VWS V14.01,2013-03-27 15:33:00,
2013-03-27 10:34:00,38.9,25.0,30.18,North,1,1.0,2.0,57,0.00,,---,0.00,VWS V14.01,2013-03-27 15:34:00,
2013-03-27 10:38:00,39.1,25.2,30.18,NNW,345,3.0,7.0,57,0.00,,---,0.00,VWS V14.01,2013-03-27 15:38:00,
2013-03-27 10:39:00,39.2,25.3,30.18,West,267,3.0,3.0,57,0.00,,---,0.00,VWS V14.01,2013-03-27 15:39:00,
2013-03-27 10:40:00,39.2,25.7,30.18,NW,318,3.0,4.0,58,0.00,,---,0.00,VWS V14.01,2013-03-27 15:40:00,
2013-03-27 10:43:00,39.3,25.4,30.18,NNW,339,0.0,2.0,57,0.00,,---,0.00,VWS V14.01,2013-03-27 15:43:00,
2013-03-27 10:44:00,39.5,26.0,30.18,NNW,342,2.0,2.0,58,0.00,,---,0.00,VWS V14.01,2013-03-27 15:44:00,
2013-03-27 10:45:00,39.5,26.0,30.18,NNW,342,1.0,2.0,58,0.00,,---,0.00,VWS V14.01,2013-03-27 15:45:00,
2013-03-27 10:47:00,39.6,26.1,30.18,NW,326,3.0,4.0,58,0.00,,---,0.00,VWS V14.01,2013-03-27 15:47:00,
2013-03-27 10:49:00,39.8,25.8,30.18,North,0,3.0,5.0,57,0.00,,---,0.00,VWS V14.01,2013-03-27 15:49:00,
2013-03-27 10:50:00,39.8,25.8,30.18,North,356,3.0,5.0,57,0.00,,---,0.00,VWS V14.01,2013-03-27 15:50:00,
2013-03-27 10:52:00,39.8,25.0,30.18,WNW,289,3.0,5.0,55,0.00,,---,0.00,VWS V14.01,2013-03-27 15:52:00,
2013-03-27 10:53:00,39.8,25.4,30.18,NNW,330,4.0,4.0,56,0.00,,---,0.00,VWS V14.01,2013-03-27 15:53:00,
2013-03-27 10:55:00,39.8,25.4,30.18,NNE,18,2.0,4.0,56,0.00,,---,0.00,VWS V14.01,2013-03-27 15:55:00,
2013-03-27 10:57:00,39.8,25.4,30.18,NNW,332,2.0,3.0,56,0.00,,---,0.00,VWS V14.01,2013-03-27 15:57:00,
2013-03-27 10:58:00,39.8,25.4,30.19,North,358,4.0,4.0,56,0.00,,---,0.00,VWS V14.01,2013-03-27 15:58:00,
2013-03-27 11:00:00,39.8,25.4,30.19,WNW,288,2.0,3.0,56,0.00,,---,0.00,VWS V14.01,2013-03-27 16:00:00,
2013-03-27 11:02:00,40.1,26.5,30.19,WNW,301,4.0,5.0,58,0.00,,---,0.00,VWS V14.01,2013-03-27 16:02:00,
2013-03-27 11:04:00,40.2,25.8,30.19,NNW,348,3.0,3.0,56,0.00,,---,0.00,VWS V14.01,2013-03-27 16:04:00,
2013-03-27 11:07:00,40.2,25.8,30.19,NW,322,5.0,5.0,56,0.00,,---,0.00,VWS V14.01,2013-03-27 16:07:00,
2013-03-27 11:09:00,40.1,25.2,30.19,NNW,345,0.0,0.0,55,0.00,,---,0.00,VWS V14.01,2013-03-27 16:09:00,
2013-03-27 11:10:00,40.1,25.2,30.19,West,278,4.0,4.0,55,0.00,,---,0.00,VWS V14.01,2013-03-27 16:10:00,
2013-03-27 11:12:00,40.2,26.2,30.19,West,281,0.0,2.0,57,0.00,,---,0.00,VWS V14.01,2013-03-27 16:12:00,
2013-03-27 11:13:00,40.3,26.3,30.19,WNW,290,3.0,3.0,57,0.00,,---,0.00,VWS V14.01,2013-03-27 16:13:00,
2013-03-27 11:16:00,40.5,26.0,30.19,North,0,3.0,3.0,56,0.00,,---,0.00,VWS V14.01,2013-03-27 16:16:00,
2013-03-27 11:17:00,40.6,26.1,30.19,NW,315,1.0,3.0,56,0.00,,---,0.00,VWS V14.01,2013-03-27 16:17:00,
2013-03-27 11:18:00,40.6,26.1,30.19,North,356,3.0,5.0,56,0.00,,---,0.00,VWS V14.01,2013-03-27 16:18:00,
2013-03-27 11:21:00,40.5,25.2,30.19,West,276,3.0,5.0,54,0.00,,---,0.00,VWS V14.01,2013-03-27 16:21:00,
2013-03-27 11:22:00,40.5,24.7,30.19,West,270,2.0,2.0,53,0.00,,---,0.00,VWS V14.01,2013-03-27 16:22:00,
2013-03-27 11:23:00,40.5,25.2,30.19,NNW,332,4.0,4.0,54,0.00,,---,0.00,VWS V14.01,2013-03-27 16:23:00,
2013-03-27 11:25:00,40.5,25.6,30.19,NW,310,5.0,5.0,55,0.00,,---,0.00,VWS V14.01,2013-03-27 16:25:00,
2013-03-27 11:27:00,40.5,25.6,30.19,NW,311,2.0,4.0,55,0.00,,---,0.00,VWS V14.01,2013-03-27 16:27:00,
2013-03-27 11:28:00,40.5,26.0,30.19,NNW,339,2.0,4.0,56,0.00,,---,0.00,VWS V14.01,2013-03-27 16:28:00,
2013-03-27 11:29:00,40.6,26.1,30.19,North,349,2.0,2.0,56,0.00,,---,0.00,VWS V14.01,2013-03-27 16:29:00,
2013-03-27 11:30:00,40.6,26.1,30.19,North,351,2.0,2.0,56,0.00,,---,0.00,VWS V14.01,2013-03-27 16:30:00,
2013-03-27 11:33:00,40.6,25.3,30.19,NNW,338,4.0,5.0,54,0.00,,---,0.00,VWS V14.01,2013-03-27 16:33:00,
2013-03-27 11:35:00,40.6,24.8,30.19,North,352,4.0,6.0,53,0.00,,---,0.00,VWS V14.01,2013-03-27 16:35:00,
2013-03-27 11:38:00,40.5,25.6,30.19,NNW,328,3.0,5.0,55,0.00,,---,0.00,VWS V14.01,2013-03-27 16:38:00,
2013-03-27 11:39:00,40.5,25.6,30.19,WNW,290,4.0,4.0,55,0.00,,---,0.00,VWS V14.01,2013-03-27 16:39:00,
2013-03-27 11:41:00,40.6,25.3,30.19,NW,319,2.0,4.0,54,0.00,,---,0.00,VWS V14.01,2013-03-27 16:41:00,
2013-03-27 11:42:00,40.6,24.8,30.19,NW,323,2.0,4.0,53,0.00,,---,0.00,VWS V14.01,2013-03-27 16:42:00,
2013-03-27 11:43:00,40.6,25.3,30.19,NW,321,5.0,5.0,54,0.00,,---,0.00,VWS V14.01,2013-03-27 16:43:00,
2013-03-27 11:44:00,40.5,24.7,30.19,NW,307,5.0,9.0,53,0.00,,---,0.00,VWS V14.01,2013-03-27 16:44:00,
2013-03-27 11:47:00,40.3,24.1,30.19,NW,326,2.0,4.0,52,0.00,,---,0.00,VWS V14.01,2013-03-27 16:47:00,
2013-03-27 11:49:00,40.5,24.7,30.19,NNW,345,4.0,6.0,53,0.00,,---,0.00,VWS V14.01,2013-03-27 16:49:00,
2013-03-27 11:50:00,40.5,24.7,30.19,North,358,4.0,4.0,53,0.00,,---,0.00,VWS V14.01,2013-03-27 16:50:00,
2013-03-27 11:54:00,40.6,25.3,30.19,NW,304,4.0,6.0,54,0.00,,---,0.00,VWS V14.01,2013-03-27 16:54:00,
2013-03-27 11:55:00,40.6,24.8,30.19,NNW,331,4.0,6.0,53,0.00,,---,0.00,VWS V14.01,2013-03-27 16:55:00,
2013-03-27 11:58:00,40.6,25.3,30.19,North,358,3.0,3.0,54,0.00,,---,0.00,VWS V14.01,2013-03-27 16:58:00,
2013-03-27 12:00:00,40.9,25.1,30.19,NNW,329,2.0,4.0,53,0.00,,---,0.00,VWS V14.01,2013-03-27 17:00:00,
2013-03-27 12:02:00,41.2,25.8,30.19,North,9,2.0,4.0,54,0.00,,---,0.00,VWS V14.01,2013-03-27 17:02:00,
2013-03-27 12:04:00,41.9,27.4,30.19,NE,39,1.0,2.0,56,0.00,,---,0.00,VWS V14.01,2013-03-27 17:04:00,
2013-03-27 12:05:00,42.2,26.3,30.19,North,358,4.0,6.0,53,0.00,,---,0.00,VWS V14.01,2013-03-27 17:05:00,
2013-03-27 12:08:00,42.5,25.2,30.19,NW,304,3.0,3.0,50,0.00,,---,0.00,VWS V14.01,2013-03-27 17:08:00,
2013-03-27 12:10:00,42.6,25.3,30.19,NNW,333,4.0,5.0,50,0.00,,---,0.00,VWS V14.01,2013-03-27 17:10:00,
2013-03-27 12:12:00,42.5,25.2,30.19,NW,318,3.0,5.0,50,0.00,,---,0.00,VWS V14.01,2013-03-27 17:12:00,
2013-03-27 12:15:00,42.1,23.8,30.19,NW,308,3.0,6.0,48,0.00,,---,0.00,VWS V14.01,2013-03-27 17:15:00,
2013-03-27 12:17:00,41.5,23.3,30.19,North,358,2.0,2.0,48,0.00,,---,0.00,VWS V14.01,2013-03-27 17:17:00,
2013-03-27 12:18:00,41.3,23.6,30.19,North,356,2.0,2.0,49,0.00,,---,0.00,VWS V14.01,2013-03-27 17:18:00,
2013-03-27 12:20:00,41.1,23.9,30.19,North,351,2.0,3.0,50,0.00,,---,0.00,VWS V14.01,2013-03-27 17:20:00,
2013-03-27 12:21:00,40.9,23.7,30.19,North,3,2.0,3.0,50,0.00,,---,0.00,VWS V14.01,2013-03-27 17:21:00,
2013-03-27 12:24:00,40.6,23.4,30.19,NNW,329,1.0,3.0,50,0.00,,---,0.00,VWS V14.01,2013-03-27 17:24:00,
2013-03-27 12:25:00,40.6,23.4,30.19,NNW,333,2.0,3.0,50,0.00,,---,0.00,VWS V14.01,2013-03-27 17:25:00,
2013-03-27 12:26:00,40.8,24.5,30.19,North,0,2.0,2.0,52,0.00,,---,0.00,VWS V14.01,2013-03-27 17:26:00,
2013-03-27 12:30:00,41.2,24.0,30.19,SE,131,0.0,3.0,50,0.00,,---,0.00,VWS V14.01,2013-03-27 17:30:00,
2013-03-27 12:31:00,41.3,24.1,30.19,SE,131,1.0,1.0,50,0.00,,---,0.00,VWS V14.01,2013-03-27 17:31:00,
2013-03-27 12:36:00,41.6,20.8,30.19,North,357,2.0,4.0,43,0.00,,---,0.00,VWS V14.01,2013-03-27 17:36:00,
2013-03-27 12:37:00,41.6,21.3,30.19,NW,325,5.0,5.0,44,0.00,,---,0.00,VWS V14.01,2013-03-27 17:37:00,
2013-03-27 12:38:00,41.6,21.3,30.19,North,0,2.0,6.0,44,0.00,,---,0.00,VWS V14.01,2013-03-27 17:38:00,
2013-03-27 12:43:00,41.3,22.6,30.19,NNW,333,3.0,5.0,47,0.00,,---,0.00,VWS V14.01,2013-03-27 17:43:00,
2013-03-27 12:44:00,41.2,22.5,30.19,North,358,6.0,6.0,47,0.00,,---,0.00,VWS V14.01,2013-03-27 17:44:00,
2013-03-27 12:49:00,40.8,21.6,30.19,North,358,3.0,3.0,46,0.00,,---,0.00,VWS V14.01,2013-03-27 17:49:00,
2013-03-27 12:50:00,40.8,21.1,30.19,NW,326,2.0,4.0,45,0.00,,---,0.00,VWS V14.01,2013-03-27 17:50:00,
2013-03-27 12:54:00,40.6,19.9,30.19,NW,305,0.0,3.0,43,0.00,,---,0.00,VWS V14.01,2013-03-27 17:54:00,
2013-03-27 12:55:00,40.8,20.6,30.19,NNE,17,4.0,5.0,44,0.00,,---,0.00,VWS V14.01,2013-03-27 17:55:00,
2013-03-27 12:56:00,40.8,20.6,30.19,NNW,342,2.0,5.0,44,0.00,,---,0.00,VWS V14.01,2013-03-27 17:56:00,
2013-03-27 12:59:00,40.8,20.0,30.19,West,271,4.0,4.0,43,0.00,,---,0.00,VWS V14.01,2013-03-27 17:59:00,
2013-03-27 13:00:00,40.8,20.0,30.19,WNW,302,2.0,4.0,43,0.00,,---,0.00,VWS V14.01,2013-03-27 18:00:00,
2013-03-27 13:01:00,40.8,20.6,30.19,West,266,3.0,5.0,44,0.00,,---,0.00,VWS V14.01,2013-03-27 18:01:00,
2013-03-27 13:03:00,40.8,20.6,30.19,WNW,290,2.0,4.0,44,0.00,,---,0.00,VWS V14.01,2013-03-27 18:03:00,
2013-03-27 13:05:00,40.8,20.0,30.19,WNW,285,4.0,4.0,43,0.00,,---,0.00,VWS V14.01,2013-03-27 18:05:00,
2013-03-27 13:06:00,40.8,20.6,30.19,North,4,2.0,4.0,44,0.00,,---,0.00,VWS V14.01,2013-03-27 18:06:00,
2013-03-27 13:09:00,40.6,20.4,30.19,NNW,328,4.0,5.0,44,0.00,,---,0.00,VWS V14.01,2013-03-27 18:09:00,
2013-03-27 13:10:00,40.6,19.3,30.19,NNW,338,2.0,2.0,42,0.00,,---,0.00,VWS V14.01,2013-03-27 18:10:00,
2013-03-27 13:11:00,40.6,19.3,30.19,North,0,0.0,3.0,42,0.00,,---,0.00,VWS V14.01,2013-03-27 18:11:00,
2013-03-27 13:12:00,40.6,19.3,30.19,North,0,0.0,3.0,42,0.00,,---,0.00,VWS V14.01,2013-03-27 18:12:00,
2013-03-27 13:15:00,40.9,20.1,30.19,NNW,333,1.0,3.0,43,0.00,,---,0.00,VWS V14.01,2013-03-27 18:15:00,
2013-03-27 13:16:00,40.9,19.6,30.19,North,358,2.0,2.0,42,0.00,,---,0.00,VWS V14.01,2013-03-27 18:16:00,
2013-03-27 13:17:00,40.9,19.6,30.19,North,358,2.0,3.0,42,0.00,,---,0.00,VWS V14.01,2013-03-27 18:17:00,
2013-03-27 13:19:00,41.1,18.6,30.19,North,352,5.0,5.0,40,0.00,,---,0.00,VWS V14.01,2013-03-27 18:19:00,
2013-03-27 13:22:00,40.9,18.5,30.19,North,0,3.0,4.0,40,0.00,,---,0.00,VWS V14.01,2013-03-27 18:22:00,
2013-03-27 13:24:00,40.8,17.8,30.19,North,358,2.0,3.0,39,0.00,,---,0.00,VWS V14.01,2013-03-27 18:24:00,
2013-03-27 13:27:00,40.8,17.2,30.19,NW,324,2.0,3.0,38,0.00,,---,0.00,VWS V14.01,2013-03-27 18:27:00,
2013-03-27 13:29:00,40.8,17.8,30.19,NW,323,3.0,3.0,39,0.00,,---,0.00,VWS V14.01,2013-03-27 18:29:00,
2013-03-27 13:33:00,40.9,19.0,30.19,WNW,289,2.0,3.0,41,0.00,,---,0.00,VWS V14.01,2013-03-27 18:33:00,
2013-03-27 13:34:00,40.8,19.5,30.19,NW,310,3.0,5.0,42,0.00,,---,0.00,VWS V14.01,2013-03-27 18:34:00,
2013-03-27 13:35:00,40.8,19.5,30.19,WNW,285,3.0,4.0,42,0.00,,---,0.00,VWS V14.01,2013-03-27 18:35:00,
2013-03-27 13:38:00,40.8,20.6,30.19,WNW,293,3.0,5.0,44,0.00,,---,0.00,VWS V14.01,2013-03-27 18:38:00,
2013-03-27 13:39:00,40.9,21.2,30.19,NW,320,4.0,4.0,45,0.00,,---,0.00,VWS V14.01,2013-03-27 18:39:00,
2013-03-27 13:40:00,40.9,21.2,30.19,NNE,15,3.0,4.0,45,0.00,,---,0.00,VWS V14.01,2013-03-27 18:40:00,
2013-03-27 13:41:00,40.9,21.2,30.19,NNW,329,1.0,4.0,45,0.00,,---,0.00,VWS V14.01,2013-03-27 18:41:00,
2013-03-27 13:43:00,40.9,21.2,30.19,NW,306,5.0,5.0,45,0.00,,---,0.00,VWS V14.01,2013-03-27 18:43:00,
2013-03-27 13:44:00,40.9,21.7,30.19,WNW,301,3.0,4.0,46,0.00,,---,0.00,VWS V14.01,2013-03-27 18:44:00,
2013-03-27 13:45:00,40.9,21.2,30.19,WNW,292,2.0,4.0,45,0.00,,---,0.00,VWS V14.01,2013-03-27 18:45:00,
2013-03-27 13:47:00,40.9,21.2,30.19,NNW,342,3.0,4.0,45,0.00,,---,0.00,VWS V14.01,2013-03-27 18:47:00,
2013-03-27 13:48:00,40.9,21.7,30.19,WNW,296,2.0,5.0,46,0.00,,---,0.00,VWS V14.01,2013-03-27 18:48:00,
2013-03-27 13:49:00,40.9,21.7,30.19,WNW,296,2.0,5.0,46,0.00,,---,0.00,VWS V14.01,2013-03-27 18:49:00,
2013-03-27 13:51:00,41.2,22.5,30.19,NW,324,3.0,3.0,47,0.00,,---,0.00,VWS V14.01,2013-03-27 18:51:00,
2013-03-27 13:53:00,41.6,22.9,30.19,NW,312,5.0,5.0,47,0.00,,---,0.00,VWS V14.01,2013-03-27 18:53:00,
2013-03-27 13:54:00,41.6,21.9,30.19,NW,309,5.0,5.0,45,0.00,,---,0.00,VWS V14.01,2013-03-27 18:54:00,
2013-03-27 13:58:00,41.9,22.6,30.19,NNW,330,5.0,5.0,46,0.00,,---,0.00,VWS V14.01,2013-03-27 18:58:00,
2013-03-27 13:59:00,42.1,21.8,30.18,NW,324,2.0,2.0,44,0.00,,---,0.00,VWS V14.01,2013-03-27 18:59:00,
2013-03-27 14:00:00,42.1,21.8,30.18,WNW,293,4.0,4.0,44,0.00,,---,0.00,VWS V14.01,2013-03-27 19:00:00,
2013-03-27 14:03:00,42.1,21.8,30.18,NNW,336,3.0,3.0,44,0.00,,---,0.00,VWS V14.01,2013-03-27 19:03:00,
2013-03-27 14:05:00,42.1,22.3,30.18,North,11,7.0,7.0,45,0.00,,---,0.00,VWS V14.01,2013-03-27 19:05:00,
2013-03-27 14:07:00,41.9,21.6,30.18,North,352,2.0,5.0,44,0.00,,---,0.00,VWS V14.01,2013-03-27 19:07:00,
2013-03-27 14:08:00,41.8,22.5,30.18,West,273,3.0,4.0,46,0.00,,---,0.00,VWS V14.01,2013-03-27 19:08:00,
2013-03-27 14:11:00,41.9,23.2,30.18,North,358,4.0,4.0,47,0.00,,---,0.00,VWS V14.01,2013-03-27 19:11:00,
2013-03-27 14:12:00,41.9,21.6,30.18,NW,308,4.0,5.0,44,0.00,,---,0.00,VWS V14.01,2013-03-27 19:12:00,
2013-03-27 14:14:00,41.8,22.0,30.17,NW,323,3.0,6.0,45,0.00,,---,0.00,VWS V14.01,2013-03-27 19:14:00,
2013-03-27 14:16:00,41.6,21.9,30.17,NNW,345,3.0,4.0,45,0.00,,---,0.00,VWS V14.01,2013-03-27 19:16:00,
2013-03-27 14:17:00,41.6,21.9,30.17,NW,319,4.0,4.0,45,0.00,,---,0.00,VWS V14.01,2013-03-27 19:17:00,
2013-03-27 14:20:00,41.5,22.8,30.17,North,353,1.0,3.0,47,0.00,,---,0.00,VWS V14.01,2013-03-27 19:20:00,
2013-03-27 14:22:00,41.6,22.9,30.17,North,0,2.0,3.0,47,0.00,,---,0.00,VWS V14.01,2013-03-27 19:22:00,
2013-03-27 14:23:00,41.6,22.9,30.17,NNW,347,3.0,4.0,47,0.00,,---,0.00,VWS V14.01,2013-03-27 19:23:00,
2013-03-27 14:26:00,41.6,22.4,30.17,North,356,3.0,7.0,46,0.00,,---,0.00,VWS V14.01,2013-03-27 19:26:00,
2013-03-27 14:28:00,41.6,22.4,30.17,NNW,330,1.0,3.0,46,0.00,,---,0.00,VWS V14.01,2013-03-27 19:28:00,
2013-03-27 14:32:00,41.8,22.5,30.17,North,356,2.0,5.0,46,0.00,,---,0.00,VWS V14.01,2013-03-27 19:32:00,
2013-03-27 14:33:00,41.8,22.5,30.17,NNW,346,2.0,3.0,46,0.00,,---,0.00,VWS V14.01,2013-03-27 19:33:00,
2013-03-27 14:34:00,41.8,23.1,30.17,West,276,3.0,4.0,47,0.00,,---,0.00,VWS V14.01,2013-03-27 19:34:00,
2013-03-27 14:36:00,41.6,21.9,30.17,NNW,335,5.0,6.0,45,0.00,,---,0.00,VWS V14.01,2013-03-27 19:36:00,
2013-03-27 14:37:00,41.6,22.4,30.17,NW,318,5.0,6.0,46,0.00,,---,0.00,VWS V14.01,2013-03-27 19:37:00,
2013-03-27 14:38:00,41.6,21.9,30.17,NNW,331,4.0,5.0,45,0.00,,---,0.00,VWS V14.01,2013-03-27 19:38:00,
2013-03-27 14:40:00,41.3,21.6,30.17,NNE,13,4.0,4.0,45,0.00,,---,0.00,VWS V14.01,2013-03-27 19:40:00,
2013-03-27 14:42:00,41.2,22.5,30.17,NW,326,4.0,5.0,47,0.00,,---,0.00,VWS V14.01,2013-03-27 19:42:00,
2013-03-27 14:43:00,41.2,22.5,30.17,North,357,3.0,4.0,47,0.00,,---,0.00,VWS V14.01,2013-03-27 19:43:00,
2013-03-27 14:46:00,41.1,22.4,30.17,NNW,337,1.0,1.0,47,0.00,,---,0.00,VWS V14.01,2013-03-27 19:46:00,
2013-03-27 14:48:00,41.2,23.5,30.17,NW,316,3.0,3.0,49,0.00,,---,0.00,VWS V14.01,2013-03-27 19:48:00,
2013-03-27 14:49:00,41.1,22.4,30.17,NNW,336,1.0,3.0,47,0.00,,---,0.00,VWS V14.01,2013-03-27 19:49:00,
2013-03-27 14:53:00,41.2,23.0,30.17,North,355,2.0,2.0,48,0.00,,---,0.00,VWS V14.01,2013-03-27 19:53:00,
2013-03-27 14:54:00,41.2,23.0,30.17,North,354,1.0,2.0,48,0.00,,---,0.00,VWS V14.01,2013-03-27 19:54:00,
2013-03-27 14:56:00,41.2,23.0,30.17,North,357,0.0,3.0,48,0.00,,---,0.00,VWS V14.01,2013-03-27 19:56:00,
2013-03-27 14:58:00,41.2,23.0,30.17,NNW,343,4.0,4.0,48,0.00,,---,0.00,VWS V14.01,2013-03-27 19:58:00,
2013-03-27 14:59:00,41.2,23.0,30.17,North,0,2.0,4.0,48,0.00,,---,0.00,VWS V14.01,2013-03-27 19:59:00,
2013-03-27 15:01:00,41.2,23.5,30.17,NW,319,2.0,3.0,49,0.00,,---,0.00,VWS V14.01,2013-03-27 20:01:00,
2013-03-27 15:03:00,41.2,22.5,30.17,NNW,334,2.0,2.0,47,0.00,,---,0.00,VWS V14.01,2013-03-27 20:03:00,
2013-03-27 15:04:00,41.2,22.5,30.17,NNE,17,3.0,6.0,47,0.00,,---,0.00,VWS V14.01,2013-03-27 20:04:00,
2013-03-27 15:07:00,41.2,23.0,30.17,NNE,14,3.0,4.0,48,0.00,,---,0.00,VWS V14.01,2013-03-27 20:07:00,
2013-03-27 15:09:00,41.2,23.0,30.17,NNW,348,5.0,5.0,48,0.00,,---,0.00,VWS V14.01,2013-03-27 20:09:00,
2013-03-27 15:10:00,41.2,22.5,30.17,WNW,302,2.0,5.0,47,0.00,,---,0.00,VWS V14.01,2013-03-27 20:10:00,
2013-03-27 15:12:00,41.2,22.5,30.17,North,0,2.0,4.0,47,0.00,,---,0.00,VWS V14.01,2013-03-27 20:12:00,
2013-03-27 15:13:00,41.3,22.6,30.17,North,358,3.0,4.0,47,0.00,,---,0.00,VWS V14.01,2013-03-27 20:13:00,
2013-03-27 15:15:00,41.3,22.1,30.17,NNW,347,1.0,5.0,46,0.00,,---,0.00,VWS V14.01,2013-03-27 20:15:00,
2013-03-27 15:16:00,41.5,22.8,30.17,North,10,3.0,3.0,47,0.00,,---,0.00,VWS V14.01,2013-03-27 20:16:00,
2013-03-27 15:18:00,41.5,22.8,30.17,NNW,342,3.0,5.0,47,0.00,,---,0.00,VWS V14.01,2013-03-27 20:18:00,
2013-03-27 15:22:00,41.5,22.8,30.17,NNE,30,4.0,4.0,47,0.00,,---,0.00,VWS V14.01,2013-03-27 20:22:00,
2013-03-27 15:23:00,41.5,22.8,30.17,North,358,2.0,3.0,47,0.00,,---,0.00,VWS V14.01,2013-03-27 20:23:00,
2013-03-27 15:24:00,41.5,22.3,30.17,ENE,59,5.0,5.0,46,0.00,,---,0.00,VWS V14.01,2013-03-27 20:24:00,
2013-03-27 15:27:00,41.5,22.3,30.17,North,10,2.0,7.0,46,0.00,,---,0.00,VWS V14.01,2013-03-27 20:27:00,
2013-03-27 15:29:00,41.5,22.3,30.17,North,4,1.0,2.0,46,0.00,,---,0.00,VWS V14.01,2013-03-27 20:29:00,
2013-03-27 15:30:00,41.6,22.9,30.17,North,5,1.0,1.0,47,0.00,,---,0.00,VWS V14.01,2013-03-27 20:30:00,
2013-03-27 15:32:00,41.6,22.4,30.17,NNW,336,3.0,3.0,46,0.00,,---,0.00,VWS V14.01,2013-03-27 20:32:00,
2013-03-27 15:35:00,41.8,22.0,30.17,North,9,2.0,5.0,45,0.00,,---,0.00,VWS V14.01,2013-03-27 20:35:00,
2013-03-27 15:36:00,41.9,22.1,30.17,North,11,4.0,4.0,45,0.00,,---,0.00,VWS V14.01,2013-03-27 20:36:00,
2013-03-27 15:39:00,41.9,22.1,30.17,NNW,338,0.0,2.0,45,0.00,,---,0.00,VWS V14.01,2013-03-27 20:39:00,
2013-03-27 15:40:00,42.1,22.8,30.17,WNW,302,2.0,5.0,46,0.00,,---,0.00,VWS V14.01,2013-03-27 20:40:00,
2013-03-27 15:42:00,42.2,22.4,30.17,North,353,4.0,4.0,45,0.00,,---,0.00,VWS V14.01,2013-03-27 20:42:00,
2013-03-27 15:43:00,42.2,21.3,30.17,WNW,291,4.0,4.0,43,0.00,,---,0.00,VWS V14.01,2013-03-27 20:43:00,
2013-03-27 15:44:00,42.2,21.3,30.17,West,267,3.0,4.0,43,0.00,,---,0.00,VWS V14.01,2013-03-27 20:44:00,
2013-03-27 15:45:00,42.1,21.2,30.17,NW,312,2.0,2.0,43,0.00,,---,0.00,VWS V14.01,2013-03-27 20:45:00,
2013-03-27 15:47:00,42.1,21.8,30.17,North,351,3.0,3.0,44,0.00,,---,0.00,VWS V14.01,2013-03-27 20:47:00,
2013-03-27 15:49:00,42.2,21.9,30.17,North,0,3.0,3.0,44,0.00,,---,0.00,VWS V14.01,2013-03-27 20:49:00,
2013-03-27 15:50:00,42.1,21.8,30.17,ENE,71,1.0,1.0,44,0.00,,---,0.00,VWS V14.01,2013-03-27 20:50:00,
2013-03-27 15:52:00,42.1,21.8,30.17,NW,312,0.0,2.0,44,0.00,,---,0.00,VWS V14.01,2013-03-27 20:52:00,
2013-03-27 15:53:00,42.1,22.3,30.17,NW,305,2.0,3.0,45,0.00,,---,0.00,VWS V14.01,2013-03-27 20:53:00,
2013-03-27 15:54:00,42.1,22.3,30.17,NW,305,2.0,3.0,45,0.00,,---,0.00,VWS V14.01,2013-03-27 20:54:00,
2013-03-27 15:55:00,42.1,21.2,30.17,North,10,4.0,5.0,43,0.00,,---,0.00,VWS V14.01,2013-03-27 20:55:00,
2013-03-27 15:59:00,42.1,21.8,30.17,West,274,5.0,5.0,44,0.00,,---,0.00,VWS V14.01,2013-03-27 20:59:00,
2013-03-27 16:01:00,42.2,22.4,30.17,West,269,3.0,3.0,45,0.00,,---,0.00,VWS V14.01,2013-03-27 21:01:00,
2013-03-27 16:02:00,42.3,22.0,30.17,WNW,297,1.0,3.0,44,0.00,,---,0.00,VWS V14.01,2013-03-27 21:02:00,
2013-03-27 16:05:00,42.5,21.6,30.17,North,0,0.0,2.0,43,0.00,,---,0.00,VWS V14.01,2013-03-27 21:05:00,
2013-03-27 16:06:00,42.6,21.7,30.17,WSW,255,0.0,3.0,43,0.00,,---,0.00,VWS V14.01,2013-03-27 21:06:00,
2013-03-27 16:07:00,42.6,21.7,30.17,North,0,3.0,3.0,43,0.00,,---,0.00,VWS V14.01,2013-03-27 21:07:00,
2013-03-27 16:08:00,42.8,21.3,30.17,North,0,0.0,5.0,42,0.00,,---,0.00,VWS V14.01,2013-03-27 21:08:00,
2013-03-27 16:10:00,42.9,21.4,30.17,West,278,3.0,3.0,42,0.00,,---,0.00,VWS V14.01,2013-03-27 21:10:00,
2013-03-27 16:12:00,43.2,21.7,30.17,North,0,4.0,4.0,42,0.00,,---,0.00,VWS V14.01,2013-03-27 21:12:00,
2013-03-27 16:13:00,43.2,21.7,30.17,North,356,3.0,4.0,42,0.00,,---,0.00,VWS V14.01,2013-03-27 21:13:00,
2013-03-27 16:15:00,43.2,21.1,30.17,NNE,19,2.0,2.0,41,0.00,,---,0.00,VWS V14.01,2013-03-27 21:15:00,
2013-03-27 16:17:00,43.1,21.0,30.17,NNW,341,2.0,3.0,41,0.00,,---,0.00,VWS V14.01,2013-03-27 21:17:00,
2013-03-27 16:18:00,42.9,20.3,30.17,North,358,0.0,0.0,40,0.00,,---,0.00,VWS V14.01,2013-03-27 21:18:00,
2013-03-27 16:19:00,42.9,20.3,30.17,North,5,3.0,3.0,40,0.00,,---,0.00,VWS V14.01,2013-03-27 21:19:00,
2013-03-27 16:21:00,42.9,20.8,30.17,NNW,337,1.0,1.0,41,0.00,,---,0.00,VWS V14.01,2013-03-27 21:21:00,
2013-03-27 16:23:00,42.9,20.8,30.17,NNW,340,3.0,3.0,41,0.00,,---,0.00,VWS V14.01,2013-03-27 21:23:00,
2013-03-27 16:26:00,43.1,20.4,30.17,North,350,2.0,4.0,40,0.00,,---,0.00,VWS V14.01,2013-03-27 21:26:00,
2013-03-27 16:27:00,42.9,20.3,30.17,NNW,334,1.0,5.0,40,0.00,,---,0.00,VWS V14.01,2013-03-27 21:27:00,
2013-03-27 16:28:00,42.8,20.2,30.17,North,354,3.0,5.0,40,0.00,,---,0.00,VWS V14.01,2013-03-27 21:28:00,
2013-03-27 16:32:00,42.5,20.5,30.17,North,355,3.0,3.0,41,0.00,,---,0.00,VWS V14.01,2013-03-27 21:32:00,
2013-03-27 16:33:00,42.5,20.5,30.17,NW,321,2.0,3.0,41,0.00,,---,0.00,VWS V14.01,2013-03-27 21:33:00,
2013-03-27 16:34:00,42.3,20.3,30.17,North,9,0.0,0.0,41,0.00,,---,0.00,VWS V14.01,2013-03-27 21:34:00,
2013-03-27 16:38:00,42.1,20.1,30.17,NW,319,4.0,4.0,41,0.00,,---,0.00,VWS V14.01,2013-03-27 21:38:00,
2013-03-27 16:39:00,41.9,19.9,30.17,NNE,14,1.0,4.0,41,0.00,,---,0.00,VWS V14.01,2013-03-27 21:39:00,
2013-03-27 16:44:00,41.5,20.1,30.17,NNW,328,3.0,3.0,42,0.00,,---,0.00,VWS V14.01,2013-03-27 21:44:00,
2013-03-27 16:48:00,41.5,20.7,30.17,North,349,4.0,4.0,43,0.00,,---,0.00,VWS V14.01,2013-03-27 21:48:00,
2013-03-27 16:50:00,41.5,20.1,30.17,North,0,2.0,3.0,42,0.00,,---,0.00,VWS V14.01,2013-03-27 21:50:00,
2013-03-27 16:52:00,41.5,20.1,30.17,North,4,0.0,3.0,42,0.00,,---,0.00,VWS V14.01,2013-03-27 21:52:00,
2013-03-27 16:53:00,41.5,19.6,30.17,North,4,1.0,2.0,41,0.00,,---,0.00,VWS V14.01,2013-03-27 21:53:00,
2013-03-27 16:56:00,41.8,20.4,30.17,NW,313,5.0,5.0,42,0.00,,---,0.00,VWS V14.01,2013-03-27 21:56:00,
2013-03-27 16:58:00,41.8,20.4,30.17,North,354,0.0,5.0,42,0.00,,---,0.00,VWS V14.01,2013-03-27 21:58:00,
2013-03-27 17:00:00,41.9,19.9,30.17,North,8,0.0,0.0,41,0.00,,---,0.00,VWS V14.01,2013-03-27 22:00:00,
2013-03-27 17:03:00,42.1,20.1,30.17,NW,326,2.0,3.0,41,0.00,,---,0.00,VWS V14.01,2013-03-27 22:03:00,
2013-03-27 17:06:00,42.2,20.2,30.17,North,358,5.0,5.0,41,0.00,,---,0.00,VWS V14.01,2013-03-27 22:06:00,
2013-03-27 17:08:00,42.2,20.2,30.17,North,356,2.0,2.0,41,0.00,,---,0.00,VWS V14.01,2013-03-27 22:08:00,
2013-03-27 17:09:00,42.2,19.6,30.17,North,3,1.0,3.0,40,0.00,,---,0.00,VWS V14.01,2013-03-27 22:09:00,
2013-03-27 17:11:00,42.1,20.1,30.17,NW,316,3.0,3.0,41,0.00,,---,0.00,VWS V14.01,2013-03-27 22:11:00,
2013-03-27 17:13:00,42.1,20.7,30.17,NW,316,1.0,1.0,42,0.00,,---,0.00,VWS V14.01,2013-03-27 22:13:00,
2013-03-27 17:16:00,41.8,20.4,30.17,NW,304,2.0,4.0,42,0.00,,---,0.00,VWS V14.01,2013-03-27 22:16:00,
2013-03-27 17:17:00,41.8,21.0,30.17,NW,304,1.0,1.0,43,0.00,,---,0.00,VWS V14.01,2013-03-27 22:17:00,
2013-03-27 17:18:00,41.6,20.2,30.17,NNW,348,0.0,2.0,42,0.00,,---,0.00,VWS V14.01,2013-03-27 22:18:00,
2013-03-27 17:22:00,41.5,20.1,30.17,NNW,333,2.0,3.0,42,0.00,,---,0.00,VWS V14.01,2013-03-27 22:22:00,
2013-03-27 17:23:00,41.3,20.0,30.17,NNW,333,1.0,2.0,42,0.00,,---,0.00,VWS V14.01,2013-03-27 22:23:00,
2013-03-27 17:24:00,41.2,19.9,30.17,NNW,345,2.0,3.0,42,0.00,,---,0.00,VWS V14.01,2013-03-27 22:24:00,
2013-03-27 17:28:00,41.2,21.0,30.17,North,6,2.0,3.0,44,0.00,,---,0.00,VWS V14.01,2013-03-27 22:28:00,
2013-03-27 17:29:00,41.2,21.0,30.17,North,0,2.0,2.0,44,0.00,,---,0.00,VWS V14.01,2013-03-27 22:29:00,
2013-03-27 17:33:00,41.3,20.5,30.17,WNW,284,2.0,2.0,43,0.00,,---,0.00,VWS V14.01,2013-03-27 22:33:00,
2013-03-27 17:34:00,41.3,20.5,30.17,North,0,3.0,3.0,43,0.00,,---,0.00,VWS V14.01,2013-03-27 22:34:00,
2013-03-27 17:36:00,41.5,20.1,30.17,North,6,0.0,2.0,42,0.00,,---,0.00,VWS V14.01,2013-03-27 22:36:00,
2013-03-27 17:39:00,41.3,20.0,30.17,North,6,0.0,3.0,42,0.00,,---,0.00,VWS V14.01,2013-03-27 22:39:00,
2013-03-27 17:40:00,41.3,20.0,30.17,North,6,0.0,0.0,42,0.00,,---,0.00,VWS V14.01,2013-03-27 22:40:00,
2013-03-27 17:42:00,41.2,20.4,30.17,North,0,2.0,3.0,43,0.00,,---,0.00,VWS V14.01,2013-03-27 22:42:00,
2013-03-27 17:45:00,40.9,20.7,30.17,North,0,1.0,1.0,44,0.00,,---,0.00,VWS V14.01,2013-03-27 22:45:00,
2013-03-27 17:46:00,40.8,20.6,30.17,North,0,1.0,1.0,44,0.00,,---,0.00,VWS V14.01,2013-03-27 22:46:00,
2013-03-27 17:50:00,40.5,20.3,30.17,NNW,342,1.0,2.0,44,0.00,,---,0.00,VWS V14.01,2013-03-27 22:50:00,
2013-03-27 17:51:00,40.5,20.3,30.17,NNW,342,1.0,1.0,44,0.00,,---,0.00,VWS V14.01,2013-03-27 22:51:00,
2013-03-27 17:52:00,40.5,20.3,30.17,NNW,342,0.0,1.0,44,0.00,,---,0.00,VWS V14.01,2013-03-27 22:52:00,
2013-03-27 17:53:00,40.3,20.7,30.17,NNW,342,0.0,0.0,45,0.00,,---,0.00,VWS V14.01,2013-03-27 22:53:00,
2013-03-27 17:57:00,40.1,20.5,30.17,NNW,330,3.0,3.0,45,0.00,,---,0.00,VWS V14.01,2013-03-27 22:57:00,
2013-03-27 17:58:00,40.1,20.5,30.17,North,355,0.0,4.0,45,0.00,,---,0.00,VWS V14.01,2013-03-27 22:58:00,
2013-03-27 17:59:00,39.9,20.3,30.18,North,355,1.0,1.0,45,0.00,,---,0.00,VWS V14.01,2013-03-27 22:59:00,
2013-03-27 18:03:00,39.8,20.7,30.18,North,355,0.0,1.0,46,0.00,,---,0.00,VWS V14.01,2013-03-27 23:03:00,
2013-03-27 18:05:00,39.6,20.5,30.18,NNW,336,0.0,2.0,46,0.00,,---,0.00,VWS V14.01,2013-03-27 23:05:00,
2013-03-27 18:06:00,39.5,20.5,30.18,NNW,336,0.0,2.0,46,0.00,,---,0.00,VWS V14.01,2013-03-27 23:06:00,
2013-03-27 18:09:00,39.3,20.3,30.18,NNW,336,1.0,3.0,46,0.00,,---,0.00,VWS V14.01,2013-03-27 23:09:00,
2013-03-27 18:10:00,39.3,20.3,30.18,NNW,336,0.0,1.0,46,0.00,,---,0.00,VWS V14.01,2013-03-27 23:10:00,
2013-03-27 18:11:00,39.3,20.3,30.18,NNW,336,0.0,0.0,46,0.00,,---,0.00,VWS V14.01,2013-03-27 23:11:00,
2013-03-27 18:12:00,39.2,20.2,30.18,NNW,336,0.0,0.0,46,0.00,,---,0.00,VWS V14.01,2013-03-27 23:12:00,
2013-03-27 18:14:00,39.2,20.2,30.18,NNE,14,2.0,3.0,46,0.00,,---,0.00,VWS V14.01,2013-03-27 23:14:00,
2013-03-27 18:15:00,39.2,20.2,30.18,NNE,15,0.0,3.0,46,0.00,,---,0.00,VWS V14.01,2013-03-27 23:15:00,
2013-03-27 18:17:00,39.1,20.1,30.18,North,350,1.0,2.0,46,0.00,,---,0.00,VWS V14.01,2013-03-27 23:17:00,
2013-03-27 18:19:00,39.1,20.1,30.18,North,354,0.0,0.0,46,0.00,,---,0.00,VWS V14.01,2013-03-27 23:19:00,
2013-03-27 18:20:00,39.1,20.1,30.18,North,354,0.0,1.0,46,0.00,,---,0.00,VWS V14.01,2013-03-27 23:20:00,
2013-03-27 18:21:00,38.9,19.9,30.18,North,354,1.0,1.0,46,0.00,,---,0.00,VWS V14.01,2013-03-27 23:21:00,
2013-03-27 18:23:00,38.9,19.9,30.18,North,354,1.0,1.0,46,0.00,,---,0.00,VWS V14.01,2013-03-27 23:23:00,
2013-03-27 18:25:00,38.9,19.9,30.18,North,354,0.0,1.0,46,0.00,,---,0.00,VWS V14.01,2013-03-27 23:25:00,
2013-03-27 18:27:00,38.8,19.8,30.18,North,354,0.0,2.0,46,0.00,,---,0.00,VWS V14.01,2013-03-27 23:27:00,
2013-03-27 18:28:00,38.8,19.8,30.18,North,354,0.0,0.0,46,0.00,,---,0.00,VWS V14.01,2013-03-27 23:28:00,
2013-03-27 18:30:00,38.8,19.8,30.18,North,354,0.0,1.0,46,0.00,,---,0.00,VWS V14.01,2013-03-27 23:30:00,
2013-03-27 18:33:00,38.8,19.8,30.18,North,6,0.0,0.0,46,0.00,,---,0.00,VWS V14.01,2013-03-27 23:33:00,
2013-03-27 18:34:00,38.8,20.3,30.18,North,6,0.0,1.0,47,0.00,,---,0.00,VWS V14.01,2013-03-27 23:34:00,
2013-03-27 18:36:00,38.6,19.6,30.18,North,6,0.0,0.0,46,0.00,,---,0.00,VWS V14.01,2013-03-27 23:36:00,
2013-03-27 18:38:00,38.6,19.6,30.18,North,6,0.0,1.0,46,0.00,,---,0.00,VWS V14.01,2013-03-27 23:38:00,
2013-03-27 18:43:00,38.6,19.6,30.18,North,6,1.0,2.0,46,0.00,,---,0.00,VWS V14.01,2013-03-27 23:43:00,
2013-03-27 18:44:00,38.5,19.5,30.18,North,6,0.0,1.0,46,0.00,,---,0.00,VWS V14.01,2013-03-27 23:44:00,
2013-03-27 18:45:00,38.5,19.5,30.18,North,6,0.0,1.0,46,0.00,,---,0.00,VWS V14.01,2013-03-27 23:45:00,
2013-03-27 18:48:00,38.5,19.5,30.18,North,6,0.0,0.0,46,0.00,,---,0.00,VWS V14.01,2013-03-27 23:48:00,
2013-03-27 18:49:00,38.5,19.5,30.18,North,6,0.0,0.0,46,0.00,,---,0.00,VWS V14.01,2013-03-27 23:49:00,
2013-03-27 18:51:00,38.5,19.5,30.18,North,6,0.0,0.0,46,0.00,,---,0.00,VWS V14.01,2013-03-27 23:51:00,
2013-03-27 18:52:00,38.5,20.0,30.18,North,6,0.0,0.0,47,0.00,,---,0.00,VWS V14.01,2013-03-27 23:52:00,
2013-03-27 18:54:00,38.3,19.9,30.18,North,6,1.0,1.0,47,0.00,,---,0.00,VWS V14.01,2013-03-27 23:54:00,
2013-03-27 18:56:00,38.3,19.9,30.18,North,6,0.0,0.0,47,0.00,,---,0.00,VWS V14.01,2013-03-27 23:56:00,
2013-03-27 18:57:00,38.3,19.9,30.18,North,6,0.0,0.0,47,0.00,,---,0.00,VWS V14.01,2013-03-27 23:57:00,
2013-03-27 18:59:00,38.3,19.9,30.18,North,6,0.0,0.0,47,0.00,,---,0.00,VWS V14.01,2013-03-27 23:59:00,
2013-03-27 19:01:00,38.3,19.9,30.18,North,6,0.0,0.0,47,0.00,,---,0.00,VWS V14.01,2013-03-28 00:01:00,
2013-03-27 19:02:00,38.3,19.9,30.18,North,6,0.0,0.0,47,0.00,,---,0.00,VWS V14.01,2013-03-28 00:02:00,
2013-03-27 19:03:00,38.3,19.9,30.18,North,6,0.0,0.0,47,0.00,,---,0.00,VWS V14.01,2013-03-28 00:03:00,
2013-03-27 19:05:00,38.2,19.8,30.18,North,6,0.0,2.0,47,0.00,,---,0.00,VWS V14.01,2013-03-28 00:05:00,
2013-03-27 19:06:00,38.2,19.8,30.18,North,6,0.0,0.0,47,0.00,,---,0.00,VWS V14.01,2013-03-28 00:06:00,
2013-03-27 19:08:00,38.2,20.2,30.18,North,6,0.0,0.0,48,0.00,,---,0.00,VWS V14.01,2013-03-28 00:08:00,
2013-03-27 19:10:00,38.2,20.7,30.18,North,6,0.0,0.0,49,0.00,,---,0.00,VWS V14.01,2013-03-28 00:10:00,
2013-03-27 19:12:00,38.0,20.5,30.18,North,6,0.0,0.0,49,0.00,,---,0.00,VWS V14.01,2013-03-28 00:12:00,
2013-03-27 19:13:00,38.0,20.1,30.18,North,6,0.0,0.0,48,0.00,,---,0.00,VWS V14.01,2013-03-28 00:13:00,
2013-03-27 19:15:00,38.0,20.5,30.19,North,6,0.0,0.0,49,0.00,,---,0.00,VWS V14.01,2013-03-28 00:15:00,
2013-03-27 19:16:00,38.0,20.5,30.19,North,6,0.0,0.0,49,0.00,,---,0.00,VWS V14.01,2013-03-28 00:16:00,
2013-03-27 19:17:00,37.9,20.5,30.19,North,6,0.0,0.0,49,0.00,,---,0.00,VWS V14.01,2013-03-28 00:17:00,
2013-03-27 19:19:00,37.9,20.5,30.19,North,6,0.0,0.0,49,0.00,,---,0.00,VWS V14.01,2013-03-28 00:19:00,
2013-03-27 19:21:00,37.8,20.4,30.19,North,6,0.0,0.0,49,0.00,,---,0.00,VWS V14.01,2013-03-28 00:21:00,
2013-03-27 19:22:00,37.8,20.4,30.19,North,6,0.0,0.0,49,0.00,,---,0.00,VWS V14.01,2013-03-28 00:22:00,
2013-03-27 19:24:00,37.8,20.4,30.19,North,6,0.0,1.0,49,0.00,,---,0.00,VWS V14.01,2013-03-28 00:24:00,
2013-03-27 19:28:00,37.6,20.7,30.19,North,6,0.0,0.0,50,0.00,,---,0.00,VWS V14.01,2013-03-28 00:28:00,
2013-03-27 19:29:00,37.6,20.2,30.19,North,6,1.0,1.0,49,0.00,,---,0.00,VWS V14.01,2013-03-28 00:29:00,
2013-03-27 19:32:00,37.5,20.1,30.19,North,6,0.0,0.0,49,0.00,,---,0.00,VWS V14.01,2013-03-28 00:32:00,
2013-03-27 19:34:00,37.5,20.1,30.19,North,6,0.0,0.0,49,0.00,,---,0.00,VWS V14.01,2013-03-28 00:34:00,
2013-03-27 19:35:00,37.5,20.1,30.19,North,6,0.0,0.0,49,0.00,,---,0.00,VWS V14.01,2013-03-28 00:35:00,
2013-03-27 19:38:00,37.5,20.6,30.19,North,6,0.0,0.0,50,0.00,,---,0.00,VWS V14.01,2013-03-28 00:38:00,
2013-03-27 19:39:00,37.3,20.4,30.19,North,6,0.0,0.0,50,0.00,,---,0.00,VWS V14.01,2013-03-28 00:39:00,
2013-03-27 19:43:00,37.3,20.4,30.19,North,6,0.0,0.0,50,0.00,,---,0.00,VWS V14.01,2013-03-28 00:43:00,
2013-03-27 19:44:00,37.2,20.3,30.19,North,6,0.0,0.0,50,0.00,,---,0.00,VWS V14.01,2013-03-28 00:44:00,
2013-03-27 19:45:00,37.2,20.3,30.19,North,6,0.0,0.0,50,0.00,,---,0.00,VWS V14.01,2013-03-28 00:45:00,
2013-03-27 19:47:00,37.2,20.3,30.19,North,6,0.0,0.0,50,0.00,,---,0.00,VWS V14.01,2013-03-28 00:47:00,
2013-03-27 19:49:00,37.0,20.1,30.19,North,6,0.0,0.0,50,0.00,,---,0.00,VWS V14.01,2013-03-28 00:49:00,
2013-03-27 19:50:00,37.0,20.1,30.19,North,6,0.0,0.0,50,0.00,,---,0.00,VWS V14.01,2013-03-28 00:50:00,
2013-03-27 19:51:00,36.9,20.0,30.19,North,6,0.0,0.0,50,0.00,,---,0.00,VWS V14.01,2013-03-28 00:51:00,
2013-03-27 19:53:00,36.9,20.0,30.19,North,6,0.0,0.0,50,0.00,,---,0.00,VWS V14.01,2013-03-28 00:53:00,
2013-03-27 19:55:00,36.8,19.9,30.19,North,6,0.0,0.0,50,0.00,,---,0.00,VWS V14.01,2013-03-28 00:55:00,
2013-03-27 19:57:00,36.6,19.7,30.19,North,6,0.0,0.0,50,0.00,,---,0.00,VWS V14.01,2013-03-28 00:57:00,
2013-03-27 19:58:00,36.6,20.2,30.19,North,6,0.0,0.0,51,0.00,,---,0.00,VWS V14.01,2013-03-28 00:58:00,
2013-03-27 20:00:00,36.5,20.1,30.19,North,6,0.0,0.0,51,0.00,,---,0.00,VWS V14.01,2013-03-28 01:00:00,
2013-03-27 20:01:00,36.5,20.1,30.19,North,6,0.0,0.0,51,0.00,,---,0.00,VWS V14.01,2013-03-28 01:01:00,
2013-03-27 20:03:00,36.3,20.4,30.19,North,6,0.0,0.0,52,0.00,,---,0.00,VWS V14.01,2013-03-28 01:03:00,
2013-03-27 20:04:00,36.3,20.4,30.19,North,6,0.0,0.0,52,0.00,,---,0.00,VWS V14.01,2013-03-28 01:04:00,
2013-03-27 20:06:00,36.2,20.3,30.19,North,6,0.0,0.0,52,0.00,,---,0.00,VWS V14.01,2013-03-28 01:06:00,
2013-03-27 20:07:00,36.2,20.3,30.19,North,6,0.0,0.0,52,0.00,,---,0.00,VWS V14.01,2013-03-28 01:07:00,
2013-03-27 20:10:00,36.0,20.1,30.19,North,6,0.0,0.0,52,0.00,,---,0.00,VWS V14.01,2013-03-28 01:10:00,
2013-03-27 20:12:00,35.9,20.0,30.19,North,6,0.0,0.0,52,0.00,,---,0.00,VWS V14.01,2013-03-28 01:12:00,
2013-03-27 20:13:00,35.9,20.0,30.19,North,6,0.0,0.0,52,0.00,,---,0.00,VWS V14.01,2013-03-28 01:13:00,
2013-03-27 20:17:00,35.8,21.2,30.19,North,6,0.0,0.0,55,0.00,,---,0.00,VWS V14.01,2013-03-28 01:17:00,
2013-03-27 20:18:00,35.8,21.2,30.19,North,6,0.0,0.0,55,0.00,,---,0.00,VWS V14.01,2013-03-28 01:18:00,
2013-03-27 20:23:00,35.6,21.0,30.19,North,6,0.0,0.0,55,0.00,,---,0.00,VWS V14.01,2013-03-28 01:23:00,
2013-03-27 20:24:00,35.5,21.0,30.19,North,6,0.0,0.0,55,0.00,,---,0.00,VWS V14.01,2013-03-28 01:24:00,
2013-03-27 20:28:00,35.3,20.3,30.19,North,6,0.0,0.0,54,0.00,,---,0.00,VWS V14.01,2013-03-28 01:28:00,
2013-03-27 20:29:00,35.3,20.3,30.19,North,6,0.0,0.0,54,0.00,,---,0.00,VWS V14.01,2013-03-28 01:29:00,
2013-03-27 20:32:00,35.3,22.0,30.19,North,6,0.0,0.0,58,0.00,,---,0.00,VWS V14.01,2013-03-28 01:32:00,
2013-03-27 20:33:00,35.2,21.9,30.19,North,6,0.0,0.0,58,0.00,,---,0.00,VWS V14.01,2013-03-28 01:33:00,
2013-03-27 20:34:00,35.2,21.9,30.19,North,6,0.0,0.0,58,0.00,,---,0.00,VWS V14.01,2013-03-28 01:34:00,
2013-03-27 20:37:00,35.2,21.9,30.19,North,6,0.0,0.0,58,0.00,,---,0.00,VWS V14.01,2013-03-28 01:37:00,
2013-03-27 20:39:00,35.0,21.3,30.19,North,6,0.0,0.0,57,0.00,,---,0.00,VWS V14.01,2013-03-28 01:39:00,
2013-03-27 20:40:00,35.0,21.3,30.19,North,6,0.0,0.0,57,0.00,,---,0.00,VWS V14.01,2013-03-28 01:40:00,
2013-03-27 20:42:00,34.9,21.2,30.19,North,6,0.0,0.0,57,0.00,,---,0.00,VWS V14.01,2013-03-28 01:42:00,
2013-03-27 20:44:00,34.7,21.0,30.20,North,6,0.0,0.0,57,0.00,,---,0.00,VWS V14.01,2013-03-28 01:44:00,
2013-03-27 20:47:00,34.6,20.5,30.20,North,6,0.0,0.0,56,0.00,,---,0.00,VWS V14.01,2013-03-28 01:47:00,
2013-03-27 20:48:00,34.4,20.3,30.20,North,6,0.0,0.0,56,0.00,,---,0.00,VWS V14.01,2013-03-28 01:48:00,
2013-03-27 20:49:00,34.4,20.3,30.20,North,6,0.0,0.0,56,0.00,,---,0.00,VWS V14.01,2013-03-28 01:49:00,
2013-03-27 20:52:00,34.3,20.2,30.20,North,6,0.0,0.0,56,0.00,,---,0.00,VWS V14.01,2013-03-28 01:52:00,
2013-03-27 20:53:00,34.3,20.2,30.20,North,6,0.0,0.0,56,0.00,,---,0.00,VWS V14.01,2013-03-28 01:53:00,
2013-03-27 20:55:00,34.1,20.1,30.20,North,6,0.0,0.0,56,0.00,,---,0.00,VWS V14.01,2013-03-28 01:55:00,
2013-03-27 20:59:00,34.1,20.1,30.20,North,6,0.0,0.0,56,0.00,,---,0.00,VWS V14.01,2013-03-28 01:59:00,
2013-03-27 21:00:00,34.0,20.0,30.20,North,6,0.0,0.0,56,0.00,,---,0.00,VWS V14.01,2013-03-28 02:00:00,
2013-03-27 21:02:00,34.0,20.0,30.20,North,6,0.0,0.0,56,0.00,,---,0.00,VWS V14.01,2013-03-28 02:02:00,
2013-03-27 21:05:00,33.8,19.8,30.20,North,6,0.0,0.0,56,0.00,,---,0.00,VWS V14.01,2013-03-28 02:05:00,
2013-03-27 21:06:00,33.8,19.8,30.20,North,6,0.0,0.0,56,0.00,,---,0.00,VWS V14.01,2013-03-28 02:06:00,
2013-03-27 21:07:00,33.8,19.8,30.20,North,6,0.0,0.0,56,0.00,,---,0.00,VWS V14.01,2013-03-28 02:07:00,
2013-03-27 21:08:00,33.8,19.8,30.20,North,6,0.0,0.0,56,0.00,,---,0.00,VWS V14.01,2013-03-28 02:08:00,
2013-03-27 21:12:00,33.7,20.1,30.20,North,6,0.0,0.0,57,0.00,,---,0.00,VWS V14.01,2013-03-28 02:12:00,
2013-03-27 21:13:00,33.5,20.3,30.20,North,6,0.0,0.0,58,0.00,,---,0.00,VWS V14.01,2013-03-28 02:13:00,
2013-03-27 21:15:00,33.5,19.9,30.20,North,6,0.0,0.0,57,0.00,,---,0.00,VWS V14.01,2013-03-28 02:15:00,
2013-03-27 21:18:00,33.4,20.2,30.20,North,6,0.0,0.0,58,0.00,,---,0.00,VWS V14.01,2013-03-28 02:18:00,
2013-03-27 21:19:00,33.4,20.2,30.20,North,6,0.0,0.0,58,0.00,,---,0.00,VWS V14.01,2013-03-28 02:19:00,
2013-03-27 21:20:00,33.2,20.0,30.20,North,6,0.0,0.0,58,0.00,,---,0.00,VWS V14.01,2013-03-28 02:20:00,
2013-03-27 21:21:00,33.2,20.0,30.20,North,6,0.0,0.0,58,0.00,,---,0.00,VWS V14.01,2013-03-28 02:21:00,
2013-03-27 21:24:00,33.1,19.9,30.20,North,6,0.0,0.0,58,0.00,,---,0.00,VWS V14.01,2013-03-28 02:24:00,
2013-03-27 21:27:00,32.9,19.8,30.20,North,6,0.0,0.0,58,0.00,,---,0.00,VWS V14.01,2013-03-28 02:27:00,
2013-03-27 21:29:00,32.8,19.7,30.21,North,6,0.0,0.0,58,0.00,,---,0.00,VWS V14.01,2013-03-28 02:29:00,
2013-03-27 21:30:00,32.8,19.7,30.21,North,6,0.0,0.0,58,0.00,,---,0.00,VWS V14.01,2013-03-28 02:30:00,
2013-03-27 21:33:00,32.7,19.6,30.21,North,6,0.0,0.0,58,0.00,,---,0.00,VWS V14.01,2013-03-28 02:33:00,
2013-03-27 21:34:00,32.7,19.6,30.21,North,6,0.0,0.0,58,0.00,,---,0.00,VWS V14.01,2013-03-28 02:34:00,
2013-03-27 21:35:00,32.5,19.4,30.21,North,6,0.0,0.0,58,0.00,,---,0.00,VWS V14.01,2013-03-28 02:35:00,
2013-03-27 21:36:00,32.5,19.8,30.21,North,6,0.0,0.0,59,0.00,,---,0.00,VWS V14.01,2013-03-28 02:36:00,
2013-03-27 21:39:00,32.4,19.7,30.21,North,6,0.0,0.0,59,0.00,,---,0.00,VWS V14.01,2013-03-28 02:39:00,
2013-03-27 21:40:00,32.4,19.7,30.21,North,6,0.0,0.0,59,0.00,,---,0.00,VWS V14.01,2013-03-28 02:40:00,
2013-03-27 21:43:00,32.4,19.7,30.21,North,6,0.0,0.0,59,0.00,,---,0.00,VWS V14.01,2013-03-28 02:43:00,
2013-03-27 21:45:00,32.2,19.9,30.21,North,6,0.0,0.0,60,0.00,,---,0.00,VWS V14.01,2013-03-28 02:45:00,
2013-03-27 21:50:00,32.1,20.6,30.21,North,6,0.0,0.0,62,0.00,,---,0.00,VWS V14.01,2013-03-28 02:50:00,
2013-03-27 21:51:00,32.1,20.6,30.21,North,6,0.0,0.0,62,0.00,,---,0.00,VWS V14.01,2013-03-28 02:51:00,
2013-03-27 21:54:00,32.1,20.6,30.21,North,6,0.0,0.0,62,0.00,,---,0.00,VWS V14.01,2013-03-28 02:54:00,
2013-03-27 21:56:00,31.9,20.4,30.21,North,6,0.0,0.0,62,0.00,,---,0.00,VWS V14.01,2013-03-28 02:56:00,
2013-03-27 21:57:00,31.9,20.4,30.21,North,6,0.0,0.0,62,0.00,,---,0.00,VWS V14.01,2013-03-28 02:57:00,
2013-03-27 21:59:00,31.9,20.4,30.21,North,6,0.0,0.0,62,0.00,,---,0.00,VWS V14.01,2013-03-28 02:59:00,
2013-03-27 22:03:00,31.9,20.8,30.21,North,6,0.0,0.0,63,0.00,,---,0.00,VWS V14.01,2013-03-28 03:03:00,
2013-03-27 22:04:00,31.8,20.7,30.21,North,6,0.0,0.0,63,0.00,,---,0.00,VWS V14.01,2013-03-28 03:04:00,
2013-03-27 22:06:00,31.8,20.7,30.21,North,6,0.0,0.0,63,0.00,,---,0.00,VWS V14.01,2013-03-28 03:06:00,
2013-03-27 22:08:00,31.8,20.7,30.21,North,6,0.0,0.0,63,0.00,,---,0.00,VWS V14.01,2013-03-28 03:08:00,
2013-03-27 22:09:00,31.8,20.7,30.21,North,6,0.0,0.0,63,0.00,,---,0.00,VWS V14.01,2013-03-28 03:09:00,
2013-03-27 22:10:00,31.8,20.7,30.21,North,6,0.0,0.0,63,0.00,,---,0.00,VWS V14.01,2013-03-28 03:10:00,
2013-03-27 22:13:00,31.8,21.0,30.20,North,6,0.0,0.0,64,0.00,,---,0.00,VWS V14.01,2013-03-28 03:13:00,
2013-03-27 22:14:00,31.8,21.0,30.20,North,6,0.0,0.0,64,0.00,,---,0.00,VWS V14.01,2013-03-28 03:14:00,
2013-03-27 22:15:00,31.8,21.0,30.20,North,6,0.0,0.0,64,0.00,,---,0.00,VWS V14.01,2013-03-28 03:15:00,
2013-03-27 22:16:00,31.8,21.0,30.20,North,6,0.0,0.0,64,0.00,,---,0.00,VWS V14.01,2013-03-28 03:16:00,
2013-03-27 22:20:00,31.8,21.0,30.20,North,6,0.0,0.0,64,0.00,,---,0.00,VWS V14.01,2013-03-28 03:20:00,
2013-03-27 22:21:00,31.8,21.0,30.20,North,6,0.0,0.0,64,0.00,,---,0.00,VWS V14.01,2013-03-28 03:21:00,
2013-03-27 22:22:00,31.8,21.0,30.20,North,6,0.0,0.0,64,0.00,,---,0.00,VWS V14.01,2013-03-28 03:22:00,
2013-03-27 22:23:00,31.8,21.4,30.20,North,6,0.0,0.0,65,0.00,,---,0.00,VWS V14.01,2013-03-28 03:23:00,
2013-03-27 22:27:00,31.6,21.2,30.20,North,6,0.0,0.0,65,0.00,,---,0.00,VWS V14.01,2013-03-28 03:27:00,
2013-03-27 22:29:00,31.6,21.2,30.20,North,6,0.0,0.0,65,0.00,,---,0.00,VWS V14.01,2013-03-28 03:29:00,
2013-03-27 22:30:00,31.6,21.2,30.20,North,6,0.0,0.0,65,0.00,,---,0.00,VWS V14.01,2013-03-28 03:30:00,
2013-03-27 22:32:00,31.5,21.1,30.20,North,6,0.0,0.0,65,0.00,,---,0.00,VWS V14.01,2013-03-28 03:32:00,
2013-03-27 22:34:00,31.5,21.1,30.20,North,6,0.0,0.0,65,0.00,,---,0.00,VWS V14.01,2013-03-28 03:34:00,
2013-03-27 22:36:00,31.3,20.9,30.20,North,6,0.0,0.0,65,0.00,,---,0.00,VWS V14.01,2013-03-28 03:36:00,
2013-03-27 22:37:00,31.3,20.9,30.20,North,6,0.0,0.0,65,0.00,,---,0.00,VWS V14.01,2013-03-28 03:37:00,
2013-03-27 22:39:00,31.2,20.8,30.20,North,6,0.0,0.0,65,0.00,,---,0.00,VWS V14.01,2013-03-28 03:39:00,
2013-03-27 22:44:00,30.9,20.5,30.20,North,6,0.0,0.0,65,0.00,,---,0.00,VWS V14.01,2013-03-28 03:44:00,
2013-03-27 22:45:00,30.9,20.9,30.20,North,6,0.0,0.0,66,0.00,,---,0.00,VWS V14.01,2013-03-28 03:45:00,
2013-03-27 22:49:00,30.7,20.7,30.20,North,6,0.0,0.0,66,0.00,,---,0.00,VWS V14.01,2013-03-28 03:49:00,
2013-03-27 22:50:00,30.6,20.6,30.20,North,6,0.0,0.0,66,0.00,,---,0.00,VWS V14.01,2013-03-28 03:50:00,
2013-03-27 22:51:00,30.6,20.6,30.20,North,6,0.0,0.0,66,0.00,,---,0.00,VWS V14.01,2013-03-28 03:51:00,
2013-03-27 22:55:00,30.3,20.3,30.20,North,6,0.0,0.0,66,0.00,,---,0.00,VWS V14.01,2013-03-28 03:55:00,
2013-03-27 22:56:00,30.3,20.7,30.20,North,6,0.0,0.0,67,0.00,,---,0.00,VWS V14.01,2013-03-28 03:56:00,
2013-03-27 22:57:00,30.1,20.5,30.20,North,6,0.0,0.0,67,0.00,,---,0.00,VWS V14.01,2013-03-28 03:57:00,
2013-03-27 23:00:00,30.1,20.5,30.20,North,6,0.0,0.0,67,0.00,,---,0.00,VWS V14.01,2013-03-28 04:00:00,
2013-03-27 23:02:00,30.0,20.7,30.20,North,6,0.0,0.0,68,0.00,,---,0.00,VWS V14.01,2013-03-28 04:02:00,
2013-03-27 23:03:00,29.8,20.5,30.20,North,6,0.0,0.0,68,0.00,,---,0.00,VWS V14.01,2013-03-28 04:03:00,
2013-03-27 23:05:00,29.8,20.5,30.20,North,6,0.0,0.0,68,0.00,,---,0.00,VWS V14.01,2013-03-28 04:05:00,
2013-03-27 23:08:00,29.7,20.8,30.20,North,6,0.0,0.0,69,0.00,,---,0.00,VWS V14.01,2013-03-28 04:08:00,
2013-03-27 23:09:00,29.7,20.8,30.20,North,6,0.0,0.0,69,0.00,,---,0.00,VWS V14.01,2013-03-28 04:09:00,
2013-03-27 23:10:00,29.5,20.6,30.20,North,6,0.0,0.0,69,0.00,,---,0.00,VWS V14.01,2013-03-28 04:10:00,
2013-03-27 23:14:00,29.5,20.6,30.20,North,6,0.0,0.0,69,0.00,,---,0.00,VWS V14.01,2013-03-28 04:14:00,
2013-03-27 23:15:00,29.4,20.5,30.20,North,6,0.0,0.0,69,0.00,,---,0.00,VWS V14.01,2013-03-28 04:15:00,
2013-03-27 23:19:00,29.4,20.5,30.20,North,6,0.0,0.0,69,0.00,,---,0.00,VWS V14.01,2013-03-28 04:19:00,
2013-03-27 23:20:00,29.3,20.4,30.20,North,6,0.0,0.0,69,0.00,,---,0.00,VWS V14.01,2013-03-28 04:20:00,
2013-03-27 23:21:00,29.3,20.4,30.20,North,6,0.0,0.0,69,0.00,,---,0.00,VWS V14.01,2013-03-28 04:21:00,
2013-03-27 23:24:00,29.1,20.5,30.20,North,6,0.0,0.0,70,0.00,,---,0.00,VWS V14.01,2013-03-28 04:24:00,
2013-03-27 23:26:00,29.0,20.5,30.20,North,6,0.0,0.0,70,0.00,,---,0.00,VWS V14.01,2013-03-28 04:26:00,
2013-03-27 23:28:00,29.0,20.5,30.20,North,6,0.0,0.0,70,0.00,,---,0.00,VWS V14.01,2013-03-28 04:28:00,
2013-03-27 23:29:00,29.0,20.8,30.20,North,6,0.0,0.0,71,0.00,,---,0.00,VWS V14.01,2013-03-28 04:29:00,
2013-03-27 23:30:00,29.0,20.8,30.20,North,6,0.0,0.0,71,0.00,,---,0.00,VWS V14.01,2013-03-28 04:30:00,
2013-03-27 23:32:00,28.8,20.6,30.20,North,6,0.0,0.0,71,0.00,,---,0.00,VWS V14.01,2013-03-28 04:32:00,
2013-03-27 23:33:00,28.8,20.6,30.20,North,6,0.0,0.0,71,0.00,,---,0.00,VWS V14.01,2013-03-28 04:33:00,
2013-03-27 23:34:00,28.8,20.6,30.20,North,6,0.0,0.0,71,0.00,,---,0.00,VWS V14.01,2013-03-28 04:34:00,
2013-03-27 23:37:00,28.7,20.5,30.20,North,6,0.0,0.0,71,0.00,,---,0.00,VWS V14.01,2013-03-28 04:37:00,
2013-03-27 23:38:00,28.7,20.5,30.20,North,6,0.0,0.0,71,0.00,,---,0.00,VWS V14.01,2013-03-28 04:38:00,
2013-03-27 23:42:00,28.7,20.5,30.20,North,6,0.0,0.0,71,0.00,,---,0.00,VWS V14.01,2013-03-28 04:42:00,
2013-03-27 23:43:00,28.7,20.5,30.20,North,6,0.0,0.0,71,0.00,,---,0.00,VWS V14.01,2013-03-28 04:43:00,
2013-03-27 23:44:00,28.5,20.3,30.20,North,6,0.0,0.0,71,0.00,,---,0.00,VWS V14.01,2013-03-28 04:44:00,
2013-03-27 23:47:00,28.5,20.3,30.20,North,6,0.0,0.0,71,0.00,,---,0.00,VWS V14.01,2013-03-28 04:47:00,
2013-03-27 23:48:00,28.4,20.2,30.20,North,6,0.0,0.0,71,0.00,,---,0.00,VWS V14.01,2013-03-28 04:48:00,
2013-03-27 23:49:00,28.4,20.5,30.20,North,6,0.0,0.0,72,0.00,,---,0.00,VWS V14.01,2013-03-28 04:49:00,
2013-03-27 23:50:00,28.4,20.5,30.20,North,6,0.0,0.0,72,0.00,,---,0.00,VWS V14.01,2013-03-28 04:50:00,
2013-03-27 23:53:00,28.2,20.4,30.20,North,6,0.0,0.0,72,0.00,,---,0.00,VWS V14.01,2013-03-28 04:53:00,
2013-03-27 23:54:00,28.2,20.4,30.20,North,6,0.0,0.0,72,0.00,,---,0.00,VWS V14.01,2013-03-28 04:54:00,
2013-03-27 23:55:00,28.2,20.4,30.20,North,6,0.0,0.0,72,0.00,,---,0.00,VWS V14.01,2013-03-28 04:55:00,
2013-03-27 23:59:00,28.1,20.6,30.20,North,6,0.0,0.0,73,0.00,,---,0.00,VWS V14.01,2013-03-28 04:59:00,